| time (UTC) | temp F | wind direction | speed MPH | gust MPH | rain 1hr in | rain 24hr in | rain mn in | humidity % | barometer mb |
| 20260903230059 | 66 | 36 | 0.0 | 0.0 | 0.00 | 0.00 | 0.00 | 74 | 1021.2 |
| 20260903225653 | 67 | 36 | 0.0 | 0.0 | 0.00 | 0.00 | 0.00 | 74 | 1021.3 |
| 20260903225546 | 67 | 36 | 0.0 | 0.0 | 0.00 | 0.00 | 0.00 | 74 | 1021.3 |
| 20260903225139 | 89 | 116 | 2.0 | 4.0 | 0.00 | 0.00 | 0.00 | 38 | 1021.6 |
| 20260903225125 | 89 | 71 | 3.0 | 4.0 | 0.00 | 0.00 | 0.00 | 38 | 1021.7 |
| 20260903225038 | 67 | 36 | 0.0 | 0.0 | 0.00 | 0.00 | 0.00 | 74 | 1021.4 |
| 20260903224926 | 67 | 36 | 0.0 | 0.0 | 0.00 | 0.00 | 0.00 | 74 | 1021.4 |
| 20260903224911 | 67 | 36 | 0.0 | 0.0 | 0.00 | 0.00 | 0.00 | 74 | 1021.4 |
| 20260903224742 | 67 | 36 | 0.0 | 0.0 | 0.00 | 0.00 | 0.00 | 74 | 1021.4 |
| 20260903224633 | 67 | 36 | 0.0 | 0.0 | 0.00 | 0.00 | 0.00 | 74 | 1021.4 |
| 20260903224601 | 67 | 36 | 0.0 | 1.0 | 0.00 | 0.00 | 0.00 | 74 | 1021.4 |
| 20260903224420 | 67 | 36 | 0.0 | 1.0 | 0.00 | 0.00 | 0.00 | 74 | 1021.4 |
| 20260903224345 | 67 | 36 | 0.0 | 1.0 | 0.00 | 0.00 | 0.00 | 74 | 1021.4 |
| 20260903224335 | 67 | 36 | 0.0 | 1.0 | 0.00 | 0.00 | 0.00 | 74 | 1021.4 |
| 20260903224247 | 67 | 36 | 0.0 | 1.0 | 0.00 | 0.00 | 0.00 | 74 | 1021.4 |
| 20260903224145 | 67 | 36 | 0.0 | 1.0 | 0.00 | 0.00 | 0.00 | 74 | 1021.4 |
| 20260903224128 | 67 | 36 | 0.0 | 1.0 | 0.00 | 0.00 | 0.00 | 74 | 1021.5 |
| 20260903224037 | 67 | 36 | 1.0 | 1.0 | 0.00 | 0.00 | 0.00 | 73 | 1021.4 |
| 20260903223933 | 67 | 36 | 1.0 | 1.0 | 0.00 | 0.00 | 0.00 | 74 | 1021.4 |
| 20260903223816 | 67 | 36 | 0.0 | 1.0 | 0.00 | 0.00 | 0.00 | 73 | 1021.4 |
| 20260903223751 | 67 | 36 | 0.0 | 1.0 | 0.00 | 0.00 | 0.00 | 73 | 1021.4 |
| 20260903223640 | 67 | 36 | 0.0 | 0.0 | 0.00 | 0.00 | 0.00 | 73 | 1021.5 |
| 20260903223530 | 67 | 36 | 0.0 | 0.0 | 0.00 | 0.00 | 0.00 | 73 | 1021.5 |
| 20260903223512 | 67 | 36 | 0.0 | 0.0 | 0.00 | 0.00 | 0.00 | 73 | 1021.4 |
| 20260903222539 | 68 | 36 | 0.0 | 0.0 | 0.00 | 0.00 | 0.00 | 72 | 1021.4 |
| 20260903221933 | 68 | 36 | 0.0 | 0.0 | 0.00 | 0.00 | 0.00 | 72 | 1021.4 |
| 20260903221506 | 68 | 36 | 0.0 | 0.0 | 0.00 | 0.00 | 0.00 | 72 | 1021.4 |
| 20260903221414 | 68 | 36 | 0.0 | 0.0 | 0.00 | 0.00 | 0.00 | 72 | 1021.4 |
| 20260903221359 | 69 | 36 | 0.0 | 0.0 | 0.00 | 0.00 | 0.00 | 72 | 1021.4 |
| 20260903221308 | 69 | 36 | 0.0 | 0.0 | 0.00 | 0.00 | 0.00 | 72 | 1021.4 |
| 20260903221152 | 69 | 36 | 0.0 | 0.0 | 0.00 | 0.00 | 0.00 | 71 | 1021.5 |
| 20260903221117 | 69 | 36 | 0.0 | 0.0 | 0.00 | 0.00 | 0.00 | 71 | 1021.5 |
| 20260903221019 | 69 | 36 | 0.0 | 0.0 | 0.00 | 0.00 | 0.00 | 72 | 1021.5 |
| 20260903220717 | 69 | 36 | 0.0 | 0.0 | 0.00 | 0.00 | 0.00 | 71 | 1021.5 |
| 20260903220617 | 69 | 36 | 0.0 | 0.0 | 0.00 | 0.00 | 0.00 | 71 | 1021.5 |
| 20260903220507 | 69 | 36 | 0.0 | 0.0 | 0.00 | 0.00 | 0.00 | 71 | 1021.5 |
| 20260903215621 | 69 | 36 | 0.0 | 0.0 | 0.00 | 0.00 | 0.00 | 71 | 1021.5 |
| 20260903215316 | 69 | 36 | 0.0 | 0.0 | 0.00 | 0.00 | 0.00 | 71 | 1021.4 |
| 20260903215011 | 69 | 36 | 0.0 | 1.0 | 0.00 | 0.00 | 0.00 | 71 | 1021.6 |
| 20260903214920 | 69 | 36 | 0.0 | 1.0 | 0.00 | 0.00 | 0.00 | 71 | 1021.6 |
| 20260903214552 | 69 | 36 | 0.0 | 2.0 | 0.00 | 0.00 | 0.00 | 70 | 1021.7 |
| 20260903213837 | 70 | 36 | 1.0 | 2.0 | 0.00 | 0.00 | 0.00 | 69 | 1021.7 |
| 20260903213710 | 70 | 36 | 1.0 | 2.0 | 0.00 | 0.00 | 0.00 | 69 | 1021.5 |
| 20260903213306 | 70 | 36 | 1.0 | 2.0 | 0.00 | 0.00 | 0.00 | 69 | 1021.7 |
| 20260903213233 | 70 | 36 | 1.0 | 1.0 | 0.00 | 0.00 | 0.00 | 70 | 1021.7 |
| 20260903213045 | 70 | 36 | 0.0 | 1.0 | 0.00 | 0.00 | 0.00 | 69 | 1021.7 |
| 20260903212921 | 71 | 36 | 0.0 | 0.0 | 0.00 | 0.00 | 0.00 | 69 | 1021.6 |
| 20260903212911 | 70 | 36 | 0.0 | 0.0 | 0.00 | 0.00 | 0.00 | 69 | 1021.7 |
| 20260903212825 | 71 | 36 | 0.0 | 0.0 | 0.00 | 0.00 | 0.00 | 69 | 1021.7 |
| 20260903212439 | 71 | 36 | 0.0 | 0.0 | 0.00 | 0.00 | 0.00 | 69 | 1021.8 |
| 20260903212404 | 71 | 36 | 0.0 | 0.0 | 0.00 | 0.00 | 0.00 | 69 | 1021.8 |
| 20260903212307 | 71 | 36 | 0.0 | 0.0 | 0.00 | 0.00 | 0.00 | 69 | 1021.9 |
| 20260903212206 | 71 | 36 | 0.0 | 0.0 | 0.00 | 0.00 | 0.00 | 68 | 1021.8 |
| 20260903212147 | 71 | 36 | 0.0 | 0.0 | 0.00 | 0.00 | 0.00 | 68 | 1021.9 |
| 20260903212055 | 71 | 36 | 0.0 | 0.0 | 0.00 | 0.00 | 0.00 | 68 | 1021.8 |
| 20260903211736 | 71 | 36 | 0.0 | 0.0 | 0.00 | 0.00 | 0.00 | 68 | 1021.8 |
| 20260903211652 | 71 | 36 | 0.0 | 0.0 | 0.00 | 0.00 | 0.00 | 67 | 1021.8 |
| 20260903211551 | 71 | 36 | 0.0 | 0.0 | 0.00 | 0.00 | 0.00 | 67 | 1021.8 |
| 20260903211502 | 72 | 36 | 0.0 | 0.0 | 0.00 | 0.00 | 0.00 | 66 | 1021.8 |
| 20260903211435 | 72 | 36 | 0.0 | 0.0 | 0.00 | 0.00 | 0.00 | 66 | 1021.9 |
| 20260903211321 | 72 | 36 | 0.0 | 0.0 | 0.00 | 0.00 | 0.00 | 66 | 1021.9 |
| 20260903211001 | 72 | 36 | 0.0 | 0.0 | 0.00 | 0.00 | 0.00 | 66 | 1021.9 |
| 20260903210905 | 72 | 36 | 0.0 | 0.0 | 0.00 | 0.00 | 0.00 | 66 | 1021.8 |
| 20260903210806 | 72 | 36 | 0.0 | 0.0 | 0.00 | 0.00 | 0.00 | 65 | 1021.8 |
| 20260903210706 | 72 | 36 | 0.0 | 0.0 | 0.00 | 0.00 | 0.00 | 65 | 1021.8 |
| 20260903210621 | 72 | 36 | 0.0 | 0.0 | 0.00 | 0.00 | 0.00 | 65 | 1021.8 |
| 20260903210538 | 73 | 36 | 0.0 | 1.0 | 0.00 | 0.00 | 0.00 | 65 | 1021.8 |
| 20260903210158 | 73 | 36 | 0.0 | 2.0 | 0.00 | 0.00 | 0.00 | 64 | 1021.8 |
| 20260903205740 | 73 | 36 | 0.0 | 2.0 | 0.00 | 0.00 | 0.00 | 64 | 1021.8 |
| 20260903205417 | 74 | 36 | 1.0 | 2.0 | 0.00 | 0.00 | 0.00 | 62 | 1021.8 |
| 20260903205249 | 74 | 36 | 1.0 | 2.0 | 0.00 | 0.00 | 0.00 | 59 | 1021.9 |
| 20260903205114 | 74 | 36 | 0.0 | 1.0 | 0.00 | 0.00 | 0.00 | 59 | 1021.8 |
| 20260903205014 | 74 | 36 | 0.0 | 0.0 | 0.00 | 0.00 | 0.00 | 58 | 1021.8 |
| 20260903204856 | 74 | 36 | 0.0 | 0.0 | 0.00 | 0.00 | 0.00 | 58 | 1021.7 |
| 20260903204833 | 74 | 36 | 0.0 | 0.0 | 0.00 | 0.00 | 0.00 | 57 | 1021.8 |
| 20260903204759 | 74 | 36 | 0.0 | 0.0 | 0.00 | 0.00 | 0.00 | 58 | 1021.7 |
| 20260903204714 | 74 | 36 | 0.0 | 0.0 | 0.00 | 0.00 | 0.00 | 58 | 1021.8 |
| 20260903204604 | 74 | 36 | 0.0 | 0.0 | 0.00 | 0.00 | 0.00 | 57 | 1021.7 |
| 20260903204528 | 74 | 36 | 0.0 | 1.0 | 0.00 | 0.00 | 0.00 | 57 | 1021.7 |
| 20260903204433 | 74 | 36 | 0.0 | 1.0 | 0.00 | 0.00 | 0.00 | 58 | 1021.8 |
| 20260903204137 | 74 | 36 | 0.0 | 1.0 | 0.00 | 0.00 | 0.00 | 57 | 1021.8 |
| 20260903204055 | 74 | 36 | 0.0 | 1.0 | 0.00 | 0.00 | 0.00 | 58 | 1021.7 |
| 20260903203958 | 74 | 36 | 0.0 | 1.0 | 0.00 | 0.00 | 0.00 | 58 | 1021.8 |
| 20260903203950 | 74 | 36 | 0.0 | 1.0 | 0.00 | 0.00 | 0.00 | 58 | 1021.8 |
| 20260903203849 | 74 | 36 | 0.0 | 1.0 | 0.00 | 0.00 | 0.00 | 59 | 1021.8 |
| 20260903203801 | 74 | 36 | 0.0 | 1.0 | 0.00 | 0.00 | 0.00 | 59 | 1021.7 |
| 20260903203733 | 74 | 36 | 0.0 | 1.0 | 0.00 | 0.00 | 0.00 | 59 | 1021.7 |
| 20260903203704 | 74 | 36 | 0.0 | 1.0 | 0.00 | 0.00 | 0.00 | 59 | 1021.8 |
| 20260903203041 | 74 | 36 | 0.0 | 2.0 | 0.00 | 0.00 | 0.00 | 60 | 1021.7 |
| 20260903202948 | 74 | 36 | 0.0 | 3.0 | 0.00 | 0.00 | 0.00 | 60 | 1021.7 |
| 20260903202859 | 74 | 36 | 0.0 | 3.0 | 0.00 | 0.00 | 0.00 | 60 | 1021.7 |
| 20260903202757 | 74 | 36 | 0.0 | 3.0 | 0.00 | 0.00 | 0.00 | 60 | 1021.6 |
| 20260903202735 | 74 | 36 | 0.0 | 3.0 | 0.00 | 0.00 | 0.00 | 60 | 1021.7 |
| 20260903202244 | 75 | 37 | 2.0 | 3.0 | 0.00 | 0.00 | 0.00 | 62 | 1021.7 |
| 20260903202213 | 75 | 38 | 2.0 | 3.0 | 0.00 | 0.00 | 0.00 | 62 | 1021.7 |
| 20260903202107 | 75 | 52 | 1.0 | 3.0 | 0.00 | 0.00 | 0.00 | 59 | 1021.6 |
| 20260903201941 | 75 | 53 | 1.0 | 2.0 | 0.00 | 0.00 | 0.00 | 58 | 1021.6 |
| 20260903200935 | 76 | 53 | 1.0 | 2.0 | 0.00 | 0.00 | 0.00 | 58 | 1021.6 |
| 20260903200908 | 76 | 53 | 1.0 | 2.0 | 0.00 | 0.00 | 0.00 | 58 | 1021.6 |
| 20260903200808 | 76 | 53 | 1.0 | 2.0 | 0.00 | 0.00 | 0.00 | 58 | 1021.6 |
| 20260903200630 | 76 | 53 | 1.0 | 2.0 | 0.00 | 0.00 | 0.00 | 58 | 1021.6 |
| 20260903200453 | 77 | 53 | 0.0 | 1.0 | 0.00 | 0.00 | 0.00 | 57 | 1021.6 |
| 20260903200348 | 77 | 53 | 0.0 | 1.0 | 0.00 | 0.00 | 0.00 | 55 | 1021.6 |
| 20260903200234 | 77 | 53 | 0.0 | 1.0 | 0.00 | 0.00 | 0.00 | 55 | 1021.6 |
| 20260903200211 | 77 | 53 | 0.0 | 1.0 | 0.00 | 0.00 | 0.00 | 55 | 1021.6 |
| 20260903200130 | 77 | 53 | 0.0 | 1.0 | 0.00 | 0.00 | 0.00 | 55 | 1021.5 |
| 20260903195720 | 78 | 53 | 0.0 | 2.0 | 0.00 | 0.00 | 0.00 | 54 | 1021.6 |
| 20260903195657 | 78 | 53 | 0.0 | 2.0 | 0.00 | 0.00 | 0.00 | 53 | 1021.5 |
| 20260903195205 | 78 | 53 | 1.0 | 2.0 | 0.00 | 0.00 | 0.00 | 55 | 1021.4 |
| 20260903194819 | 78 | 53 | 1.0 | 2.0 | 0.00 | 0.00 | 0.00 | 53 | 1021.5 |
| 20260903194651 | 79 | 53 | 0.0 | 1.0 | 0.00 | 0.00 | 0.00 | 53 | 1021.5 |
| 20260903194516 | 79 | 148 | 0.0 | 0.0 | 0.00 | 0.00 | 0.00 | 53 | 1021.5 |
| 20260903194459 | 79 | 148 | 0.0 | 0.0 | 0.00 | 0.00 | 0.00 | 51 | 1021.4 |
| 20260903194412 | 79 | 148 | 0.0 | 0.0 | 0.00 | 0.00 | 0.00 | 51 | 1021.4 |
| 20260903194313 | 79 | 148 | 0.0 | 0.0 | 0.00 | 0.00 | 0.00 | 51 | 1021.4 |
| 20260903194248 | 80 | 148 | 0.0 | 0.0 | 0.00 | 0.00 | 0.00 | 51 | 1021.5 |
| 20260903194200 | 80 | 148 | 0.0 | 0.0 | 0.00 | 0.00 | 0.00 | 51 | 1021.4 |
| 20260903194039 | 80 | 148 | 0.0 | 0.0 | 0.00 | 0.00 | 0.00 | 52 | 1021.4 |
| 20260903193952 | 80 | 148 | 0.0 | 0.0 | 0.00 | 0.00 | 0.00 | 51 | 1021.4 |
| 20260903193608 | 80 | 148 | 0.0 | 0.0 | 0.00 | 0.00 | 0.00 | 51 | 1021.5 |
| 20260903193449 | 81 | 148 | 0.0 | 0.0 | 0.00 | 0.00 | 0.00 | 50 | 1021.4 |
| 20260903193434 | 81 | 148 | 0.0 | 0.0 | 0.00 | 0.00 | 0.00 | 50 | 1021.4 |
| 20260903193345 | 81 | 148 | 0.0 | 0.0 | 0.00 | 0.00 | 0.00 | 50 | 1021.4 |
| 20260903193252 | 81 | 148 | 0.0 | 0.0 | 0.00 | 0.00 | 0.00 | 50 | 1021.4 |
| 20260903193144 | 81 | 148 | 0.0 | 0.0 | 0.00 | 0.00 | 0.00 | 50 | 1021.4 |
| 20260903192804 | 82 | 148 | 0.0 | 0.0 | 0.00 | 0.00 | 0.00 | 49 | 1021.4 |
| 20260903192411 | 82 | 148 | 0.0 | 0.0 | 0.00 | 0.00 | 0.00 | 49 | 1021.5 |
| 20260903192331 | 82 | 148 | 0.0 | 0.0 | 0.00 | 0.00 | 0.00 | 49 | 1021.4 |
| 20260903191921 | 83 | 148 | 0.0 | 0.0 | 0.00 | 0.00 | 0.00 | 49 | 1021.4 |
| 20260903191857 | 83 | 148 | 0.0 | 0.0 | 0.00 | 0.00 | 0.00 | 49 | 1021.5 |
| 20260903191747 | 83 | 148 | 0.0 | 0.0 | 0.00 | 0.00 | 0.00 | 48 | 1021.4 |
| 20260903191622 | 83 | 148 | 0.0 | 0.0 | 0.00 | 0.00 | 0.00 | 48 | 1021.4 |
| 20260903191520 | 83 | 148 | 0.0 | 0.0 | 0.00 | 0.00 | 0.00 | 48 | 1021.5 |
| 20260903191355 | 84 | 148 | 0.0 | 0.0 | 0.00 | 0.00 | 0.00 | 47 | 1021.5 |
| 20260903191305 | 84 | 148 | 0.0 | 0.0 | 0.00 | 0.00 | 0.00 | 47 | 1021.4 |
| 20260903191225 | 84 | 148 | 0.0 | 0.0 | 0.00 | 0.00 | 0.00 | 47 | 1021.4 |
| 20260903191113 | 84 | 148 | 0.0 | 0.0 | 0.00 | 0.00 | 0.00 | 47 | 1021.4 |
| 20260903191008 | 85 | 148 | 0.0 | 0.0 | 0.00 | 0.00 | 0.00 | 46 | 1021.3 |
| 20260903190914 | 85 | 148 | 0.0 | 0.0 | 0.00 | 0.00 | 0.00 | 46 | 1021.3 |
| 20260903190833 | 85 | 148 | 0.0 | 0.0 | 0.00 | 0.00 | 0.00 | 46 | 1021.4 |
| 20260903190752 | 85 | 148 | 0.0 | 0.0 | 0.00 | 0.00 | 0.00 | 46 | 1021.3 |
| 20260903190722 | 85 | 148 | 0.0 | 0.0 | 0.00 | 0.00 | 0.00 | 46 | 1021.4 |
| 20260903190609 | 85 | 148 | 0.0 | 0.0 | 0.00 | 0.00 | 0.00 | 46 | 1021.3 |
| 20260903190446 | 86 | 148 | 0.0 | 0.0 | 0.00 | 0.00 | 0.00 | 45 | 1021.4 |
| 20260903190334 | 86 | 148 | 0.0 | 0.0 | 0.00 | 0.00 | 0.00 | 45 | 1021.3 |
| 20260903185711 | 86 | 148 | 0.0 | 0.0 | 0.00 | 0.00 | 0.00 | 44 | 1021.3 |
| 20260903185616 | 87 | 148 | 0.0 | 0.0 | 0.00 | 0.00 | 0.00 | 44 | 1021.4 |
| 20260903185306 | 87 | 148 | 0.0 | 2.0 | 0.00 | 0.00 | 0.00 | 43 | 1021.4 |
| 20260903185155 | 87 | 148 | 0.0 | 2.0 | 0.00 | 0.00 | 0.00 | 43 | 1021.3 |
| 20260903185052 | 87 | 148 | 0.0 | 3.0 | 0.00 | 0.00 | 0.00 | 43 | 1021.3 |
| 20260903185022 | 87 | 148 | 0.0 | 3.0 | 0.00 | 0.00 | 0.00 | 43 | 1021.3 |
| 20260903184941 | 87 | 148 | 0.0 | 3.0 | 0.00 | 0.00 | 0.00 | 42 | 1021.3 |
| 20260903184835 | 87 | 148 | 0.0 | 3.0 | 0.00 | 0.00 | 0.00 | 42 | 1021.4 |
| 20260903184723 | 87 | 148 | 1.0 | 3.0 | 0.00 | 0.00 | 0.00 | 41 | 1021.4 |
| 20260903184602 | 87 | 148 | 1.0 | 3.0 | 0.00 | 0.00 | 0.00 | 41 | 1021.3 |
| 20260903184435 | 87 | 116 | 1.0 | 3.0 | 0.00 | 0.00 | 0.00 | 40 | 1021.3 |
| 20260903183411 | 87 | 115 | 2.0 | 4.0 | 0.00 | 0.00 | 0.00 | 40 | 1021.4 |
| 20260903183347 | 87 | 106 | 2.0 | 4.0 | 0.00 | 0.00 | 0.00 | 40 | 1021.4 |
| 20260903183206 | 87 | 121 | 2.0 | 4.0 | 0.00 | 0.00 | 0.00 | 40 | 1021.4 |
| 20260903183026 | 87 | 144 | 2.0 | 4.0 | 0.00 | 0.00 | 0.00 | 40 | 1021.4 |
| 20260903182956 | 87 | 130 | 2.0 | 4.0 | 0.00 | 0.00 | 0.00 | 40 | 1021.4 |
| 20260903182503 | 88 | 123 | 3.0 | 4.0 | 0.00 | 0.00 | 0.00 | 39 | 1021.4 |
| 20260903182344 | 88 | 117 | 2.0 | 4.0 | 0.00 | 0.00 | 0.00 | 40 | 1021.4 |
| 20260903182311 | 88 | 120 | 1.0 | 4.0 | 0.00 | 0.00 | 0.00 | 40 | 1021.4 |
| 20260903181753 | 88 | 126 | 2.0 | 4.0 | 0.00 | 0.00 | 0.00 | 40 | 1021.4 |
| 20260903181724 | 88 | 128 | 2.0 | 4.0 | 0.00 | 0.00 | 0.00 | 40 | 1021.4 |
| 20260903181226 | 88 | 130 | 2.0 | 7.0 | 0.00 | 0.00 | 0.00 | 40 | 1021.4 |
| 20260903181112 | 88 | 126 | 3.0 | 7.0 | 0.00 | 0.00 | 0.00 | 40 | 1021.5 |
| 20260903181044 | 88 | 123 | 3.0 | 7.0 | 0.00 | 0.00 | 0.00 | 39 | 1021.5 |
| 20260903180903 | 88 | 124 | 2.0 | 7.0 | 0.00 | 0.00 | 0.00 | 39 | 1021.5 |
| 20260903180718 | 88 | 129 | 2.0 | 7.0 | 0.00 | 0.00 | 0.00 | 39 | 1021.5 |
| 20260903180638 | 88 | 146 | 2.0 | 7.0 | 0.00 | 0.00 | 0.00 | 39 | 1021.5 |
| 20260903180137 | 88 | 108 | 3.0 | 7.0 | 0.00 | 0.00 | 0.00 | 38 | 1021.5 |
| 20260903180019 | 88 | 115 | 3.0 | 7.0 | 0.00 | 0.00 | 0.00 | 39 | 1021.5 |
| 20260903175952 | 88 | 110 | 3.0 | 7.0 | 0.00 | 0.00 | 0.00 | 39 | 1021.5 |
| 20260903175811 | 88 | 111 | 4.0 | 7.0 | 0.00 | 0.00 | 0.00 | 39 | 1021.5 |
| 20260903175632 | 89 | 115 | 4.0 | 7.0 | 0.00 | 0.00 | 0.00 | 38 | 1021.5 |
| 20260903175241 | 89 | 112 | 3.0 | 4.0 | 0.00 | 0.00 | 0.00 | 38 | 1021.5 |
| 20260903175051 | 89 | 123 | 2.0 | 4.0 | 0.00 | 0.00 | 0.00 | 38 | 1021.5 |
| 20260903174938 | 89 | 146 | 2.0 | 4.0 | 0.00 | 0.00 | 0.00 | 38 | 1021.6 |
| 20260903174541 | 89 | 98 | 2.0 | 4.0 | 0.00 | 0.00 | 0.00 | 38 | 1021.6 |
| 20260903174418 | 89 | 107 | 2.0 | 4.0 | 0.00 | 0.00 | 0.00 | 38 | 1021.7 |
| 20260903174024 | 89 | 81 | 1.0 | 5.0 | 0.00 | 0.00 | 0.00 | 38 | 1021.6 |
| 20260903173857 | 89 | 111 | 1.0 | 5.0 | 0.00 | 0.00 | 0.00 | 37 | 1021.6 |
| 20260903173746 | 89 | 76 | 2.0 | 5.0 | 0.00 | 0.00 | 0.00 | 37 | 1021.7 |
| 20260903173719 | 89 | 94 | 2.0 | 5.0 | 0.00 | 0.00 | 0.00 | 37 | 1021.7 |
| 20260903173552 | 89 | 89 | 2.0 | 5.0 | 0.00 | 0.00 | 0.00 | 37 | 1021.7 |
| 20260903173420 | 89 | 85 | 3.0 | 5.0 | 0.00 | 0.00 | 0.00 | 37 | 1021.7 |
| 20260903173345 | 89 | 67 | 3.0 | 5.0 | 0.00 | 0.00 | 0.00 | 37 | 1021.7 |
| 20260903173237 | 89 | 91 | 2.0 | 4.0 | 0.00 | 0.00 | 0.00 | 37 | 1021.7 |
| 20260903172738 | 89 | 51 | 3.0 | 3.0 | 0.00 | 0.00 | 0.00 | 38 | 1021.7 |
| 20260903172710 | 89 | 65 | 2.0 | 3.0 | 0.00 | 0.00 | 0.00 | 38 | 1021.8 |
| 20260903172533 | 89 | 128 | 0.0 | 4.0 | 0.00 | 0.00 | 0.00 | 38 | 1021.7 |
| 20260903172340 | 89 | 109 | 0.0 | 6.0 | 0.00 | 0.00 | 0.00 | 38 | 1021.8 |
| 20260903172316 | 89 | 109 | 0.0 | 6.0 | 0.00 | 0.00 | 0.00 | 37 | 1021.8 |
| 20260903172231 | 89 | 109 | 1.0 | 6.0 | 0.00 | 0.00 | 0.00 | 37 | 1021.7 |
| 20260903172121 | 89 | 109 | 1.0 | 6.0 | 0.00 | 0.00 | 0.00 | 38 | 1021.7 |
| 20260903172021 | 89 | 98 | 2.0 | 7.0 | 0.00 | 0.00 | 0.00 | 38 | 1021.7 |
| 20260903171948 | 89 | 98 | 4.0 | 8.0 | 0.00 | 0.00 | 0.00 | 38 | 1021.8 |
| 20260903171813 | 89 | 113 | 3.0 | 8.0 | 0.00 | 0.00 | 0.00 | 37 | 1021.8 |
| 20260903171637 | 89 | 148 | 3.0 | 8.0 | 0.00 | 0.00 | 0.00 | 36 | 1021.7 |
| 20260903171604 | 89 | 110 | 3.0 | 8.0 | 0.00 | 0.00 | 0.00 | 36 | 1021.7 |
| 20260903171457 | 89 | 117 | 2.0 | 8.0 | 0.00 | 0.00 | 0.00 | 36 | 1021.7 |
| 20260903171322 | 89 | 135 | 4.0 | 8.0 | 0.00 | 0.00 | 0.00 | 37 | 1021.7 |
| 20260903171156 | 89 | 123 | 2.0 | 8.0 | 0.00 | 0.00 | 0.00 | 39 | 1021.7 |
| 20260903171132 | 89 | 140 | 1.0 | 6.0 | 0.00 | 0.00 | 0.00 | 39 | 1021.7 |
| 20260903170951 | 89 | 74 | 2.0 | 6.0 | 0.00 | 0.00 | 0.00 | 39 | 1021.7 |
| 20260903170808 | 89 | 85 | 3.0 | 6.0 | 0.00 | 0.00 | 0.00 | 39 | 1021.7 |
| 20260903170736 | 89 | 47 | 3.0 | 6.0 | 0.00 | 0.00 | 0.00 | 39 | 1021.7 |
| 20260903170625 | 89 | 71 | 4.0 | 6.0 | 0.00 | 0.00 | 0.00 | 38 | 1021.8 |
| 20260903170449 | 89 | 74 | 3.0 | 6.0 | 0.00 | 0.00 | 0.00 | 38 | 1021.7 |
| 20260903170330 | 89 | 32 | 3.0 | 6.0 | 0.00 | 0.00 | 0.00 | 39 | 1021.8 |
| 20260903170303 | 89 | 11 | 3.0 | 6.0 | 0.00 | 0.00 | 0.00 | 38 | 1021.8 |
| 20260903165835 | 89 | 54 | 2.0 | 5.0 | 0.00 | 0.00 | 0.00 | 39 | 1021.8 |
| 20260903165427 | 89 | 37 | 3.0 | 7.0 | 0.00 | 0.00 | 0.00 | 39 | 1021.8 |
| 20260903165325 | 89 | 34 | 3.0 | 7.0 | 0.00 | 0.00 | 0.00 | 38 | 1021.7 |
| 20260903165258 | 89 | 77 | 2.0 | 7.0 | 0.00 | 0.00 | 0.00 | 39 | 1021.8 |
| 20260903165120 | 89 | 28 | 1.0 | 7.0 | 0.00 | 0.00 | 0.00 | 40 | 1021.8 |
| 20260903164656 | 89 | 72 | 3.0 | 7.0 | 0.00 | 0.00 | 0.00 | 40 | 1021.7 |
| 20260903164515 | 89 | 46 | 1.0 | 6.0 | 0.00 | 0.00 | 0.00 | 40 | 1021.8 |
| 20260903163718 | 89 | 157 | 3.0 | 7.0 | 0.00 | 0.00 | 0.00 | 40 | 1021.8 |
| 20260903163649 | 89 | 155 | 2.0 | 7.0 | 0.00 | 0.00 | 0.00 | 40 | 1021.8 |
| 20260903163543 | 89 | 172 | 2.0 | 7.0 | 0.00 | 0.00 | 0.00 | 40 | 1021.8 |
| 20260903163401 | 89 | 126 | 5.0 | 8.0 | 0.00 | 0.00 | 0.00 | 39 | 1021.9 |
| 20260903163256 | 89 | 127 | 3.0 | 8.0 | 0.00 | 0.00 | 0.00 | 40 | 1021.8 |
| 20260903163227 | 89 | 136 | 3.0 | 8.0 | 0.00 | 0.00 | 0.00 | 39 | 1021.9 |
| 20260903163054 | 89 | 108 | 2.0 | 8.0 | 0.00 | 0.00 | 0.00 | 39 | 1021.9 |
| 20260903162655 | 89 | 98 | 5.0 | 8.0 | 0.00 | 0.00 | 0.00 | 39 | 1021.8 |
| 20260903162534 | 89 | 86 | 6.0 | 8.0 | 0.00 | 0.00 | 0.00 | 40 | 1021.9 |
| 20260903162405 | 89 | 63 | 0.0 | 7.0 | 0.00 | 0.00 | 0.00 | 40 | 1021.8 |
| 20260903162308 | 89 | 69 | 2.0 | 7.0 | 0.00 | 0.00 | 0.00 | 40 | 1021.9 |
| 20260903161536 | 88 | 94 | 2.0 | 8.0 | 0.00 | 0.00 | 0.00 | 39 | 1021.9 |
| 20260903161510 | 88 | 57 | 2.0 | 8.0 | 0.00 | 0.00 | 0.00 | 39 | 1021.9 |
| 20260903161350 | 88 | 61 | 4.0 | 8.0 | 0.00 | 0.00 | 0.00 | 39 | 1021.9 |
| 20260903161221 | 88 | 55 | 3.0 | 8.0 | 0.00 | 0.00 | 0.00 | 39 | 1022.0 |
| 20260903161104 | 88 | 76 | 5.0 | 8.0 | 0.00 | 0.00 | 0.00 | 39 | 1022.0 |
| 20260903161032 | 88 | 88 | 5.0 | 8.0 | 0.00 | 0.00 | 0.00 | 40 | 1021.9 |
| 20260903160908 | 89 | 122 | 3.0 | 8.0 | 0.00 | 0.00 | 0.00 | 40 | 1021.9 |
| 20260903160736 | 88 | 61 | 2.0 | 5.0 | 0.00 | 0.00 | 0.00 | 40 | 1022.0 |
| 20260903160712 | 88 | 71 | 2.0 | 5.0 | 0.00 | 0.00 | 0.00 | 40 | 1022.0 |
| 20260903160555 | 88 | 61 | 2.0 | 8.0 | 0.00 | 0.00 | 0.00 | 41 | 1021.9 |
| 20260903160436 | 88 | 46 | 3.0 | 8.0 | 0.00 | 0.00 | 0.00 | 41 | 1022.0 |
| 20260903160313 | 88 | 51 | 3.0 | 8.0 | 0.00 | 0.00 | 0.00 | 40 | 1022.0 |
| 20260903160246 | 88 | 57 | 3.0 | 8.0 | 0.00 | 0.00 | 0.00 | 40 | 1021.9 |
| 20260903155920 | 88 | 18 | 4.0 | 8.0 | 0.00 | 0.00 | 0.00 | 40 | 1021.9 |
| 20260903155851 | 88 | 21 | 3.0 | 8.0 | 0.00 | 0.00 | 0.00 | 40 | 1021.9 |
| 20260903155451 | 88 | 67 | 2.0 | 8.0 | 0.00 | 0.00 | 0.00 | 42 | 1021.9 |
| 20260903154610 | 88 | 84 | 5.0 | 8.0 | 0.00 | 0.00 | 0.00 | 42 | 1022.0 |
| 20260903154215 | 88 | 69 | 4.0 | 8.0 | 0.00 | 0.00 | 0.00 | 42 | 1022.1 |
| 20260903154035 | 88 | 5 | 2.0 | 6.0 | 0.00 | 0.00 | 0.00 | 43 | 1022.1 |
| 20260903153927 | 88 | 348 | 4.0 | 6.0 | 0.00 | 0.00 | 0.00 | 42 | 1022.2 |
| 20260903153854 | 88 | 348 | 4.0 | 6.0 | 0.00 | 0.00 | 0.00 | 42 | 1022.2 |
| 20260903153718 | 88 | 348 | 3.0 | 6.0 | 0.00 | 0.00 | 0.00 | 42 | 1022.1 |
| 20260903153519 | 88 | 38 | 4.0 | 6.0 | 0.00 | 0.00 | 0.00 | 43 | 1022.2 |
| 20260903153346 | 88 | 51 | 2.0 | 6.0 | 0.00 | 0.00 | 0.00 | 45 | 1022.2 |
| 20260903153211 | 88 | 123 | 3.0 | 7.0 | 0.00 | 0.00 | 0.00 | 44 | 1022.2 |
| 20260903153054 | 87 | 67 | 2.0 | 7.0 | 0.00 | 0.00 | 0.00 | 44 | 1022.3 |
| 20260903153018 | 87 | 82 | 2.0 | 7.0 | 0.00 | 0.00 | 0.00 | 44 | 1022.3 |
| 20260903152842 | 87 | 103 | 2.0 | 7.0 | 0.00 | 0.00 | 0.00 | 44 | 1022.3 |
| 20260903152701 | 87 | 169 | 4.0 | 7.0 | 0.00 | 0.00 | 0.00 | 44 | 1022.3 |
| 20260903152635 | 87 | 151 | 4.0 | 7.0 | 0.00 | 0.00 | 0.00 | 44 | 1022.3 |
| 20260903152513 | 87 | 142 | 4.0 | 7.0 | 0.00 | 0.00 | 0.00 | 45 | 1022.3 |
| 20260903152323 | 87 | 73 | 3.0 | 7.0 | 0.00 | 0.00 | 0.00 | 43 | 1022.3 |
| 20260903152217 | 87 | 45 | 1.0 | 7.0 | 0.00 | 0.00 | 0.00 | 43 | 1022.3 |
| 20260903152146 | 87 | 45 | 1.0 | 10.0 | 0.00 | 0.00 | 0.00 | 44 | 1022.3 |
| 20260903151128 | 87 | 53 | 6.0 | 11.0 | 0.00 | 0.00 | 0.00 | 42 | 1022.5 |
| 20260903150650 | 87 | 146 | 3.0 | 6.0 | 0.00 | 0.00 | 0.00 | 45 | 1022.5 |
| 20260903150505 | 87 | 163 | 3.0 | 6.0 | 0.00 | 0.00 | 0.00 | 45 | 1022.4 |
| 20260903150323 | 87 | 63 | 3.0 | 7.0 | 0.00 | 0.00 | 0.00 | 44 | 1022.4 |
| 20260903150155 | 87 | 40 | 3.0 | 9.0 | 0.00 | 0.00 | 0.00 | 46 | 1022.4 |
| 20260903150059 | 87 | 52 | 2.0 | 9.0 | 0.00 | 0.00 | 0.00 | 46 | 1022.4 |
| 20260903150004 | 87 | 80 | 0.0 | 9.0 | 0.00 | 0.00 | 0.00 | 46 | 1022.4 |
| 20260903145845 | 87 | 84 | 3.0 | 9.0 | 0.00 | 0.00 | 0.00 | 45 | 1022.5 |
| 20260903145652 | 87 | 52 | 4.0 | 9.0 | 0.00 | 0.00 | 0.00 | 46 | 1022.5 |
| 20260903145510 | 87 | 137 | 6.0 | 9.0 | 0.00 | 0.00 | 0.00 | 46 | 1022.5 |
| 20260903145334 | 87 | 132 | 4.0 | 9.0 | 0.00 | 0.00 | 0.00 | 47 | 1022.5 |
| 20260903145242 | 87 | 86 | 3.0 | 8.0 | 0.00 | 0.00 | 0.00 | 46 | 1022.5 |
| 20260903145148 | 87 | 109 | 2.0 | 8.0 | 0.00 | 0.00 | 0.00 | 46 | 1022.5 |
| 20260903144639 | 87 | 347 | 2.0 | 8.0 | 0.00 | 0.00 | 0.00 | 47 | 1022.5 |
| 20260903144633 | 87 | 347 | 2.0 | 8.0 | 0.00 | 0.00 | 0.00 | 47 | 1022.5 |
| 20260903144117 | 87 | 299 | 2.0 | 6.0 | 0.00 | 0.00 | 0.00 | 47 | 1022.5 |
| 20260903144021 | 87 | 304 | 1.0 | 6.0 | 0.00 | 0.00 | 0.00 | 48 | 1022.6 |
| 20260903143916 | 87 | 83 | 1.0 | 4.0 | 0.00 | 0.00 | 0.00 | 48 | 1022.6 |
| 20260903143750 | 86 | 259 | 1.0 | 4.0 | 0.00 | 0.00 | 0.00 | 48 | 1022.5 |
| 20260903143626 | 86 | 109 | 0.0 | 4.0 | 0.00 | 0.00 | 0.00 | 48 | 1022.6 |
| 20260903143602 | 86 | 74 | 0.0 | 4.0 | 0.00 | 0.00 | 0.00 | 48 | 1022.6 |
| 20260903143434 | 86 | 333 | 2.0 | 10.0 | 0.00 | 0.00 | 0.00 | 48 | 1022.6 |
| 20260903143303 | 86 | 132 | 2.0 | 10.0 | 0.00 | 0.00 | 0.00 | 49 | 1022.6 |
| 20260903143222 | 86 | 109 | 2.0 | 10.0 | 0.00 | 0.00 | 0.00 | 49 | 1022.7 |
| 20260903143115 | 86 | 140 | 2.0 | 10.0 | 0.00 | 0.00 | 0.00 | 48 | 1022.6 |
| 20260903142931 | 86 | 101 | 3.0 | 10.0 | 0.00 | 0.00 | 0.00 | 50 | 1022.8 |
| 20260903142808 | 86 | 101 | 6.0 | 10.0 | 0.00 | 0.00 | 0.00 | 49 | 1022.7 |
| 20260903142741 | 86 | 88 | 6.0 | 10.0 | 0.00 | 0.00 | 0.00 | 49 | 1022.8 |
| 20260903142558 | 86 | 62 | 3.0 | 6.0 | 0.00 | 0.00 | 0.00 | 49 | 1022.8 |
| 20260903142130 | 86 | 213 | 1.0 | 8.0 | 0.00 | 0.00 | 0.00 | 49 | 1022.8 |
| 20260903141958 | 86 | 49 | 3.0 | 8.0 | 0.00 | 0.00 | 0.00 | 49 | 1023.0 |
| 20260903141850 | 86 | 70 | 4.0 | 8.0 | 0.00 | 0.00 | 0.00 | 49 | 1022.9 |
| 20260903141824 | 86 | 100 | 4.0 | 8.0 | 0.00 | 0.00 | 0.00 | 49 | 1022.9 |
| 20260903141111 | 85 | 96 | 2.0 | 8.0 | 0.00 | 0.00 | 0.00 | 51 | 1023.0 |
| 20260903140928 | 85 | 144 | 2.0 | 8.0 | 0.00 | 0.00 | 0.00 | 50 | 1023.1 |
| 20260903140434 | 85 | 82 | 3.0 | 10.0 | 0.00 | 0.00 | 0.00 | 51 | 1023.1 |
| 20260903140252 | 85 | 42 | 3.0 | 11.0 | 0.00 | 0.00 | 0.00 | 51 | 1023.1 |
| 20260903140232 | 85 | 21 | 4.0 | 11.0 | 0.00 | 0.00 | 0.00 | 51 | 1023.1 |
| 20260903135723 | 85 | 18 | 4.0 | 11.0 | 0.00 | 0.00 | 0.00 | 52 | 1023.1 |
| 20260903135616 | 85 | 45 | 6.0 | 11.0 | 0.00 | 0.00 | 0.00 | 52 | 1023.1 |
| 20260903135540 | 85 | 45 | 6.0 | 11.0 | 0.00 | 0.00 | 0.00 | 52 | 1023.2 |
| 20260903135355 | 85 | 67 | 5.0 | 11.0 | 0.00 | 0.00 | 0.00 | 53 | 1023.1 |
| 20260903135225 | 85 | 343 | 3.0 | 10.0 | 0.00 | 0.00 | 0.00 | 51 | 1023.2 |
| 20260903135200 | 85 | 342 | 2.0 | 10.0 | 0.00 | 0.00 | 0.00 | 51 | 1023.2 |
| 20260903135037 | 85 | 348 | 3.0 | 10.0 | 0.00 | 0.00 | 0.00 | 53 | 1023.1 |
| 20260903134901 | 85 | 80 | 6.0 | 10.0 | 0.00 | 0.00 | 0.00 | 52 | 1023.1 |
| 20260903134558 | 84 | 131 | 3.0 | 7.0 | 0.00 | 0.00 | 0.00 | 53 | 1023.2 |
| 20260903134412 | 84 | 352 | 2.0 | 6.0 | 0.00 | 0.00 | 0.00 | 53 | 1023.1 |
| 20260903133955 | 84 | 84 | 2.0 | 9.0 | 0.00 | 0.00 | 0.00 | 52 | 1023.2 |
| 20260903133821 | 84 | 96 | 2.0 | 9.0 | 0.00 | 0.00 | 0.00 | 52 | 1023.2 |
| 20260903133412 | 84 | 140 | 4.0 | 9.0 | 0.00 | 0.00 | 0.00 | 52 | 1023.3 |
| 20260903132945 | 84 | 340 | 3.0 | 6.0 | 0.00 | 0.00 | 0.00 | 54 | 1023.2 |
| 20260903132755 | 84 | 65 | 4.0 | 6.0 | 0.00 | 0.00 | 0.00 | 53 | 1023.1 |
| 20260903132702 | 84 | 352 | 2.0 | 6.0 | 0.00 | 0.00 | 0.00 | 54 | 1023.3 |
| 20260903132606 | 84 | 14 | 3.0 | 6.0 | 0.00 | 0.00 | 0.00 | 55 | 1023.3 |
| 20260903132440 | 83 | 336 | 2.0 | 6.0 | 0.00 | 0.00 | 0.00 | 54 | 1023.3 |
| 20260903132020 | 83 | 0 | 2.0 | 9.0 | 0.00 | 0.00 | 0.00 | 56 | 1023.4 |
| 20260903131604 | 82 | 64 | 3.0 | 9.0 | 0.00 | 0.00 | 0.00 | 54 | 1023.4 |
| 20260903131420 | 82 | 105 | 5.0 | 9.0 | 0.00 | 0.00 | 0.00 | 55 | 1023.5 |
| 20260903131134 | 82 | 71 | 4.0 | 9.0 | 0.00 | 0.00 | 0.00 | 55 | 1023.5 |
| 20260903130955 | 82 | 77 | 4.0 | 9.0 | 0.00 | 0.00 | 0.00 | 55 | 1023.5 |
| 20260903130540 | 82 | 74 | 6.0 | 9.0 | 0.00 | 0.00 | 0.00 | 55 | 1023.6 |
| 20260903130435 | 82 | 76 | 4.0 | 9.0 | 0.00 | 0.00 | 0.00 | 55 | 1023.5 |
| 20260903130254 | 82 | 153 | 2.0 | 7.0 | 0.00 | 0.00 | 0.00 | 55 | 1023.5 |
| 20260903130131 | 82 | 146 | 4.0 | 10.0 | 0.00 | 0.00 | 0.00 | 55 | 1023.5 |
| 20260903130109 | 82 | 128 | 4.0 | 10.0 | 0.00 | 0.00 | 0.00 | 55 | 1023.5 |
| 20260903125925 | 82 | 107 | 3.0 | 10.0 | 0.00 | 0.00 | 0.00 | 56 | 1023.5 |
| 20260903125748 | 82 | 84 | 2.0 | 10.0 | 0.00 | 0.00 | 0.00 | 56 | 1023.6 |
| 20260903125412 | 82 | 150 | 4.0 | 10.0 | 0.00 | 0.00 | 0.00 | 56 | 1023.6 |
| 20260903125231 | 82 | 49 | 7.0 | 10.0 | 0.00 | 0.00 | 0.00 | 56 | 1023.6 |
| 20260903125105 | 82 | 81 | 6.0 | 10.0 | 0.00 | 0.00 | 0.00 | 56 | 1023.6 |
| 20260903125042 | 82 | 107 | 6.0 | 10.0 | 0.00 | 0.00 | 0.00 | 56 | 1023.7 |
| 20260903124900 | 82 | 88 | 2.0 | 8.0 | 0.00 | 0.00 | 0.00 | 56 | 1023.7 |
| 20260903124719 | 82 | 52 | 3.0 | 9.0 | 0.00 | 0.00 | 0.00 | 55 | 1023.8 |
| 20260903124335 | 82 | 58 | 3.0 | 9.0 | 0.00 | 0.00 | 0.00 | 57 | 1023.8 |
| 20260903124154 | 82 | 5 | 2.0 | 10.0 | 0.00 | 0.00 | 0.00 | 56 | 1023.8 |
| 20260903124032 | 81 | 17 | 2.0 | 10.0 | 0.00 | 0.00 | 0.00 | 56 | 1023.8 |
| 20260903124008 | 81 | 16 | 2.0 | 10.0 | 0.00 | 0.00 | 0.00 | 55 | 1023.8 |
| 20260903123830 | 81 | 86 | 6.0 | 10.0 | 0.00 | 0.00 | 0.00 | 55 | 1023.8 |
| 20260903123638 | 81 | 36 | 5.0 | 10.0 | 0.00 | 0.00 | 0.00 | 56 | 1023.8 |
| 20260903123605 | 81 | 43 | 7.0 | 10.0 | 0.00 | 0.00 | 0.00 | 56 | 1023.8 |
| 20260903123446 | 82 | 94 | 5.0 | 10.0 | 0.00 | 0.00 | 0.00 | 56 | 1023.8 |
| 20260903123305 | 81 | 0 | 2.0 | 5.0 | 0.00 | 0.00 | 0.00 | 56 | 1023.9 |
| 20260903123151 | 81 | 350 | 1.0 | 5.0 | 0.00 | 0.00 | 0.00 | 57 | 1023.8 |
| 20260903123125 | 81 | 352 | 1.0 | 5.0 | 0.00 | 0.00 | 0.00 | 57 | 1023.8 |
| 20260903122700 | 81 | 352 | 2.0 | 6.0 | 0.00 | 0.00 | 0.00 | 58 | 1023.8 |
| 20260903122626 | 81 | 5 | 2.0 | 6.0 | 0.00 | 0.00 | 0.00 | 58 | 1023.9 |
| 20260903122135 | 80 | 352 | 1.0 | 8.0 | 0.00 | 0.00 | 0.00 | 57 | 1024.0 |
| 20260903122030 | 80 | 104 | 1.0 | 8.0 | 0.00 | 0.00 | 0.00 | 57 | 1024.0 |
| 20260903122004 | 80 | 104 | 1.0 | 9.0 | 0.00 | 0.00 | 0.00 | 57 | 1024.0 |
| 20260903121847 | 80 | 112 | 3.0 | 9.0 | 0.00 | 0.00 | 0.00 | 57 | 1024.0 |
| 20260903121710 | 80 | 105 | 4.0 | 10.0 | 0.00 | 0.00 | 0.00 | 57 | 1024.1 |
| 20260903121639 | 80 | 23 | 3.0 | 10.0 | 0.00 | 0.00 | 0.00 | 57 | 1024.0 |
| 20260903121519 | 80 | 32 | 4.0 | 10.0 | 0.00 | 0.00 | 0.00 | 57 | 1024.1 |
| 20260903121352 | 80 | 57 | 6.0 | 10.0 | 0.00 | 0.00 | 0.00 | 57 | 1024.1 |
| 20260903121229 | 80 | 96 | 4.0 | 10.0 | 0.00 | 0.00 | 0.00 | 57 | 1023.9 |
| 20260903121203 | 80 | 123 | 4.0 | 10.0 | 0.00 | 0.00 | 0.00 | 58 | 1024.1 |
| 20260903121021 | 80 | 74 | 6.0 | 10.0 | 0.00 | 0.00 | 0.00 | 58 | 1024.1 |
| 20260903120600 | 79 | 182 | 0.0 | 5.0 | 0.00 | 0.00 | 0.00 | 59 | 1024.1 |
| 20260903115851 | 79 | 173 | 2.0 | 7.0 | 0.00 | 0.00 | 0.00 | 59 | 1024.1 |
| 20260903115437 | 79 | 202 | 2.0 | 10.0 | 0.00 | 0.00 | 0.00 | 59 | 1024.2 |
| 20260903114625 | 79 | 101 | 5.0 | 10.0 | 0.00 | 0.00 | 0.00 | 60 | 1024.3 |
| 20260903114549 | 79 | 91 | 5.0 | 10.0 | 0.00 | 0.00 | 0.00 | 60 | 1024.3 |
| 20260903114007 | 78 | 110 | 2.0 | 6.0 | 0.00 | 0.00 | 0.00 | 60 | 1024.4 |
| 20260903113941 | 78 | 126 | 2.0 | 6.0 | 0.00 | 0.00 | 0.00 | 60 | 1024.4 |
| 20260903113410 | 78 | 118 | 2.0 | 7.0 | 0.00 | 0.00 | 0.00 | 61 | 1024.3 |
| 20260903113306 | 78 | 31 | 3.0 | 7.0 | 0.00 | 0.00 | 0.00 | 61 | 1024.4 |
| 20260903113224 | 78 | 42 | 3.0 | 7.0 | 0.00 | 0.00 | 0.00 | 61 | 1024.4 |
| 20260903113039 | 78 | 79 | 1.0 | 7.0 | 0.00 | 0.00 | 0.00 | 61 | 1024.5 |
| 20260903112634 | 78 | 187 | 3.0 | 7.0 | 0.00 | 0.00 | 0.00 | 61 | 1024.4 |
| 20260903112500 | 78 | 173 | 2.0 | 7.0 | 0.00 | 0.00 | 0.00 | 61 | 1024.5 |
| 20260903112316 | 77 | 122 | 3.0 | 7.0 | 0.00 | 0.00 | 0.00 | 62 | 1024.5 |
| 20260903112209 | 77 | 81 | 2.0 | 7.0 | 0.00 | 0.00 | 0.00 | 62 | 1024.6 |
| 20260903111751 | 77 | 14 | 4.0 | 7.0 | 0.00 | 0.00 | 0.00 | 62 | 1024.6 |
| 20260903111558 | 77 | 53 | 2.0 | 7.0 | 0.00 | 0.00 | 0.00 | 63 | 1024.7 |
| 20260903111536 | 77 | 53 | 2.0 | 7.0 | 0.00 | 0.00 | 0.00 | 63 | 1024.7 |
| 20260903111409 | 77 | 22 | 2.0 | 7.0 | 0.00 | 0.00 | 0.00 | 62 | 1024.7 |
| 20260903111219 | 77 | 305 | 3.0 | 7.0 | 0.00 | 0.00 | 0.00 | 63 | 1024.6 |
| 20260903111117 | 77 | 352 | 4.0 | 7.0 | 0.00 | 0.00 | 0.00 | 63 | 1024.7 |
| 20260903111041 | 77 | 19 | 5.0 | 7.0 | 0.00 | 0.00 | 0.00 | 62 | 1024.7 |
| 20260903110847 | 77 | 80 | 4.0 | 7.0 | 0.00 | 0.00 | 0.00 | 62 | 1024.9 |
| 20260903110437 | 77 | 90 | 4.0 | 6.0 | 0.00 | 0.00 | 0.00 | 62 | 1024.7 |
| 20260903110316 | 77 | 53 | 3.0 | 5.0 | 0.00 | 0.00 | 0.00 | 62 | 1024.9 |
| 20260903110124 | 77 | 50 | 2.0 | 5.0 | 0.00 | 0.00 | 0.00 | 63 | 1025.0 |
| 20260903110012 | 77 | 9 | 2.0 | 4.0 | 0.00 | 0.00 | 0.00 | 64 | 1025.0 |
| 20260903105941 | 77 | 340 | 1.0 | 4.0 | 0.00 | 0.00 | 0.00 | 64 | 1025.0 |
| 20260903105755 | 76 | 352 | 2.0 | 4.0 | 0.00 | 0.00 | 0.00 | 64 | 1025.1 |
| 20260903105620 | 76 | 17 | 2.0 | 5.0 | 0.00 | 0.00 | 0.00 | 64 | 1025.0 |
| 20260903105550 | 76 | 76 | 2.0 | 5.0 | 0.00 | 0.00 | 0.00 | 64 | 1025.0 |
| 20260903105438 | 76 | 121 | 3.0 | 6.0 | 0.00 | 0.00 | 0.00 | 64 | 1025.0 |
| 20260903105247 | 76 | 28 | 2.0 | 7.0 | 0.00 | 0.00 | 0.00 | 64 | 1025.1 |
| 20260903105130 | 76 | 50 | 2.0 | 7.0 | 0.00 | 0.00 | 0.00 | 63 | 1025.1 |
| 20260903105058 | 76 | 55 | 3.0 | 7.0 | 0.00 | 0.00 | 0.00 | 63 | 1025.0 |
| 20260903104529 | 76 | 67 | 3.0 | 7.0 | 0.00 | 0.00 | 0.00 | 64 | 1025.0 |
| 20260903104459 | 76 | 104 | 3.0 | 7.0 | 0.00 | 0.00 | 0.00 | 64 | 1025.0 |
| 20260903104336 | 76 | 82 | 2.0 | 7.0 | 0.00 | 0.00 | 0.00 | 64 | 1025.1 |
| 20260903104138 | 75 | 102 | 1.0 | 6.0 | 0.00 | 0.00 | 0.00 | 64 | 1025.0 |
| 20260903104032 | 76 | 5 | 1.0 | 6.0 | 0.00 | 0.00 | 0.00 | 64 | 1025.2 |
| 20260903104005 | 76 | 5 | 1.0 | 6.0 | 0.00 | 0.00 | 0.00 | 65 | 1025.1 |
| 20260903103843 | 76 | 36 | 3.0 | 6.0 | 0.00 | 0.00 | 0.00 | 64 | 1025.1 |
| 20260903103650 | 76 | 72 | 4.0 | 6.0 | 0.00 | 0.00 | 0.00 | 64 | 1025.1 |
| 20260903103616 | 76 | 61 | 4.0 | 6.0 | 0.00 | 0.00 | 0.00 | 64 | 1025.2 |
| 20260903103504 | 76 | 49 | 0.0 | 6.0 | 0.00 | 0.00 | 0.00 | 66 | 1025.2 |
| 20260903103336 | 75 | 81 | 0.0 | 4.0 | 0.00 | 0.00 | 0.00 | 65 | 1025.1 |
| 20260903103241 | 75 | 81 | 0.0 | 6.0 | 0.00 | 0.00 | 0.00 | 65 | 1025.2 |
| 20260903103216 | 75 | 81 | 0.0 | 6.0 | 0.00 | 0.00 | 0.00 | 66 | 1025.2 |
| 20260903103114 | 75 | 81 | 2.0 | 6.0 | 0.00 | 0.00 | 0.00 | 65 | 1025.2 |
| 20260903102947 | 75 | 77 | 2.0 | 6.0 | 0.00 | 0.00 | 0.00 | 66 | 1025.2 |
| 20260903102910 | 75 | 117 | 2.0 | 6.0 | 0.00 | 0.00 | 0.00 | 66 | 1025.3 |
| 20260903102752 | 75 | 112 | 3.0 | 6.0 | 0.00 | 0.00 | 0.00 | 67 | 1025.3 |
| 20260903102605 | 74 | 95 | 2.0 | 6.0 | 0.00 | 0.00 | 0.00 | 67 | 1025.3 |
| 20260903102442 | 74 | 5 | 2.0 | 4.0 | 0.00 | 0.00 | 0.00 | 67 | 1025.2 |
| 20260903102424 | 74 | 5 | 2.0 | 4.0 | 0.00 | 0.00 | 0.00 | 67 | 1025.3 |
| 20260903102228 | 74 | 43 | 2.0 | 5.0 | 0.00 | 0.00 | 0.00 | 69 | 1025.3 |
| 20260903102051 | 74 | 66 | 1.0 | 5.0 | 0.00 | 0.00 | 0.00 | 70 | 1025.2 |
| 20260903102013 | 74 | 246 | 1.0 | 5.0 | 0.00 | 0.00 | 0.00 | 69 | 1025.3 |
| 20260903101928 | 74 | 246 | 2.0 | 5.0 | 0.00 | 0.00 | 0.00 | 69 | 1025.3 |
| 20260903101737 | 73 | 150 | 3.0 | 5.0 | 0.00 | 0.00 | 0.00 | 69 | 1025.3 |
| 20260903101620 | 73 | 132 | 2.0 | 6.0 | 0.00 | 0.00 | 0.00 | 69 | 1025.3 |
| 20260903101149 | 73 | 185 | 2.0 | 6.0 | 0.00 | 0.00 | 0.00 | 69 | 1025.4 |
| 20260903101010 | 73 | 134 | 1.0 | 6.0 | 0.00 | 0.00 | 0.00 | 70 | 1025.3 |
| 20260903100937 | 73 | 123 | 1.0 | 6.0 | 0.00 | 0.00 | 0.00 | 70 | 1025.2 |
| 20260903100420 | 73 | 115 | 3.0 | 6.0 | 0.00 | 0.00 | 0.00 | 69 | 1025.3 |
| 20260903100311 | 73 | 55 | 3.0 | 6.0 | 0.00 | 0.00 | 0.00 | 70 | 1025.3 |
| 20260903095837 | 73 | 150 | 2.0 | 6.0 | 0.00 | 0.00 | 0.00 | 71 | 1025.3 |
| 20260903095656 | 73 | 105 | 3.0 | 6.0 | 0.00 | 0.00 | 0.00 | 71 | 1025.4 |
| 20260903095630 | 73 | 164 | 3.0 | 6.0 | 0.00 | 0.00 | 0.00 | 71 | 1025.4 |
| 20260903095505 | 73 | 64 | 4.0 | 6.0 | 0.00 | 0.00 | 0.00 | 70 | 1025.4 |
| 20260903095323 | 73 | 53 | 2.0 | 6.0 | 0.00 | 0.00 | 0.00 | 71 | 1025.3 |
| 20260903095202 | 73 | 340 | 2.0 | 5.0 | 0.00 | 0.00 | 0.00 | 72 | 1025.4 |
| 20260903095145 | 72 | 340 | 1.0 | 5.0 | 0.00 | 0.00 | 0.00 | 72 | 1025.4 |
| 20260903095001 | 72 | 248 | 0.0 | 5.0 | 0.00 | 0.00 | 0.00 | 73 | 1025.4 |
| 20260903094610 | 72 | 162 | 0.0 | 5.0 | 0.00 | 0.00 | 0.00 | 73 | 1025.5 |
| 20260903094528 | 72 | 162 | 0.0 | 5.0 | 0.00 | 0.00 | 0.00 | 74 | 1025.4 |
| 20260903094352 | 72 | 162 | 2.0 | 5.0 | 0.00 | 0.00 | 0.00 | 73 | 1025.5 |
| 20260903094238 | 72 | 182 | 2.0 | 5.0 | 0.00 | 0.00 | 0.00 | 74 | 1025.5 |
| 20260903094211 | 72 | 173 | 1.0 | 5.0 | 0.00 | 0.00 | 0.00 | 74 | 1025.4 |
| 20260903094020 | 72 | 131 | 1.0 | 4.0 | 0.00 | 0.00 | 0.00 | 74 | 1025.4 |
| 20260903093847 | 71 | 101 | 1.0 | 4.0 | 0.00 | 0.00 | 0.00 | 75 | 1025.4 |
| 20260903093822 | 71 | 76 | 1.0 | 4.0 | 0.00 | 0.00 | 0.00 | 75 | 1025.4 |
| 20260903093706 | 71 | 134 | 1.0 | 4.0 | 0.00 | 0.00 | 0.00 | 76 | 1025.4 |
| 20260903093509 | 71 | 143 | 2.0 | 6.0 | 0.00 | 0.00 | 0.00 | 76 | 1025.4 |
| 20260903093346 | 71 | 125 | 3.0 | 6.0 | 0.00 | 0.00 | 0.00 | 76 | 1025.5 |
| 20260903093316 | 71 | 125 | 3.0 | 6.0 | 0.00 | 0.00 | 0.00 | 76 | 1025.5 |
| 20260903093119 | 71 | 96 | 2.0 | 6.0 | 0.00 | 0.00 | 0.00 | 76 | 1025.5 |
| 20260903092937 | 70 | 92 | 2.0 | 6.0 | 0.00 | 0.00 | 0.00 | 76 | 1025.5 |
| 20260903092908 | 70 | 107 | 2.0 | 6.0 | 0.00 | 0.00 | 0.00 | 76 | 1025.6 |
| 20260903092752 | 70 | 130 | 3.0 | 6.0 | 0.00 | 0.00 | 0.00 | 77 | 1025.6 |
| 20260903091955 | 70 | 63 | 2.0 | 4.0 | 0.00 | 0.00 | 0.00 | 78 | 1025.6 |
| 20260903091813 | 69 | 105 | 2.0 | 5.0 | 0.00 | 0.00 | 0.00 | 78 | 1025.7 |
| 20260903091614 | 69 | 99 | 2.0 | 5.0 | 0.00 | 0.00 | 0.00 | 78 | 1025.6 |
| 20260903091545 | 69 | 53 | 2.0 | 5.0 | 0.00 | 0.00 | 0.00 | 79 | 1025.6 |
| 20260903091429 | 69 | 58 | 1.0 | 5.0 | 0.00 | 0.00 | 0.00 | 79 | 1025.7 |
| 20260903091255 | 69 | 74 | 2.0 | 5.0 | 0.00 | 0.00 | 0.00 | 80 | 1025.6 |
| 20260903091136 | 69 | 53 | 2.0 | 5.0 | 0.00 | 0.00 | 0.00 | 80 | 1025.7 |
| 20260903090712 | 68 | 140 | 2.0 | 5.0 | 0.00 | 0.00 | 0.00 | 81 | 1025.6 |
| 20260903090538 | 68 | 113 | 0.0 | 5.0 | 0.00 | 0.00 | 0.00 | 81 | 1025.7 |
| 20260903090500 | 68 | 55 | 0.0 | 5.0 | 0.00 | 0.00 | 0.00 | 81 | 1025.7 |
| 20260903090408 | 68 | 97 | 1.0 | 5.0 | 0.00 | 0.00 | 0.00 | 81 | 1025.7 |
| 20260903090247 | 68 | 82 | 3.0 | 6.0 | 0.00 | 0.00 | 0.00 | 81 | 1025.7 |
| 20260903090127 | 68 | 64 | 2.0 | 6.0 | 0.00 | 0.00 | 0.00 | 82 | 1025.7 |
| 20260903090104 | 67 | 77 | 2.0 | 6.0 | 0.00 | 0.00 | 0.00 | 82 | 1025.7 |
| 20260903085926 | 67 | 45 | 2.0 | 6.0 | 0.00 | 0.00 | 0.00 | 81 | 1025.7 |
| 20260903085803 | 67 | 60 | 3.0 | 6.0 | 0.00 | 0.00 | 0.00 | 82 | 1025.7 |
| 20260903085733 | 67 | 60 | 3.0 | 6.0 | 0.00 | 0.00 | 0.00 | 82 | 1025.7 |
| 20260903085628 | 67 | 49 | 3.0 | 6.0 | 0.00 | 0.00 | 0.00 | 82 | 1025.6 |
| 20260903085437 | 67 | 103 | 2.0 | 4.0 | 0.00 | 0.00 | 0.00 | 83 | 1025.7 |
| 20260903085252 | 67 | 104 | 2.0 | 5.0 | 0.00 | 0.00 | 0.00 | 84 | 1025.7 |
| 20260903085242 | 67 | 97 | 1.0 | 5.0 | 0.00 | 0.00 | 0.00 | 83 | 1025.7 |
| 20260903085053 | 67 | 69 | 2.0 | 5.0 | 0.00 | 0.00 | 0.00 | 83 | 1025.7 |
| 20260903084916 | 67 | 63 | 3.0 | 6.0 | 0.00 | 0.00 | 0.00 | 84 | 1025.7 |
| 20260903084825 | 66 | 86 | 3.0 | 6.0 | 0.00 | 0.00 | 0.00 | 84 | 1025.7 |
| 20260903084722 | 66 | 86 | 2.0 | 6.0 | 0.00 | 0.00 | 0.00 | 84 | 1025.7 |
| 20260903084137 | 66 | 74 | 3.0 | 6.0 | 0.00 | 0.00 | 0.00 | 85 | 1025.8 |
| 20260903084128 | 66 | 60 | 2.0 | 6.0 | 0.00 | 0.00 | 0.00 | 85 | 1025.8 |
| 20260903083540 | 65 | 105 | 3.0 | 5.0 | 0.00 | 0.00 | 0.00 | 86 | 1025.8 |
| 20260903083448 | 65 | 88 | 2.0 | 6.0 | 0.00 | 0.00 | 0.00 | 86 | 1025.7 |
| 20260903083354 | 65 | 74 | 2.0 | 6.0 | 0.00 | 0.00 | 0.00 | 86 | 1025.8 |
| 20260903083153 | 65 | 128 | 2.0 | 6.0 | 0.00 | 0.00 | 0.00 | 86 | 1025.7 |
| 20260903083011 | 65 | 69 | 2.0 | 6.0 | 0.00 | 0.00 | 0.00 | 86 | 1025.7 |
| 20260903082607 | 65 | 128 | 4.0 | 6.0 | 0.00 | 0.00 | 0.00 | 86 | 1025.6 |
| 20260903082131 | 65 | 87 | 3.0 | 4.0 | 0.00 | 0.00 | 0.00 | 87 | 1025.6 |
| 20260903082034 | 65 | 97 | 3.0 | 4.0 | 0.00 | 0.00 | 0.00 | 86 | 1025.5 |
| 20260903081839 | 65 | 147 | 2.0 | 4.0 | 0.00 | 0.00 | 0.00 | 87 | 1025.6 |
| 20260903081445 | 65 | 111 | 3.0 | 4.0 | 0.00 | 0.00 | 0.00 | 87 | 1025.6 |
| 20260903080910 | 64 | 55 | 1.0 | 4.0 | 0.00 | 0.00 | 0.00 | 88 | 1025.5 |
| 20260903080117 | 64 | 55 | 1.0 | 3.0 | 0.00 | 0.00 | 0.00 | 89 | 1025.6 |
| 20260903075950 | 64 | 139 | 1.0 | 3.0 | 0.00 | 0.00 | 0.00 | 89 | 1025.7 |
| 20260903075158 | 63 | 89 | 2.0 | 3.0 | 0.00 | 0.00 | 0.00 | 89 | 1025.7 |
| 20260903075112 | 63 | 78 | 2.0 | 3.0 | 0.00 | 0.00 | 0.00 | 89 | 1025.7 |
| 20260903075018 | 63 | 76 | 2.0 | 4.0 | 0.00 | 0.00 | 0.00 | 89 | 1025.7 |
| 20260903074829 | 63 | 124 | 2.0 | 4.0 | 0.00 | 0.00 | 0.00 | 90 | 1025.7 |
| 20260903074651 | 63 | 144 | 2.0 | 5.0 | 0.00 | 0.00 | 0.00 | 90 | 1025.7 |
| 20260903074516 | 63 | 127 | 1.0 | 5.0 | 0.00 | 0.00 | 0.00 | 90 | 1025.7 |
| 20260903074335 | 62 | 57 | 2.0 | 5.0 | 0.00 | 0.00 | 0.00 | 90 | 1025.5 |
| 20260903073954 | 62 | 111 | 2.0 | 5.0 | 0.00 | 0.00 | 0.00 | 90 | 1025.7 |
| 20260903073806 | 62 | 140 | 3.0 | 5.0 | 0.00 | 0.00 | 0.00 | 90 | 1025.7 |
| 20260903073614 | 62 | 136 | 2.0 | 4.0 | 0.00 | 0.00 | 0.00 | 91 | 1025.7 |
| 20260903073437 | 62 | 135 | 2.0 | 3.0 | 0.00 | 0.00 | 0.00 | 91 | 1025.6 |
| 20260903072942 | 62 | 128 | 2.0 | 3.0 | 0.00 | 0.00 | 0.00 | 91 | 1025.6 |
| 20260903072451 | 61 | 130 | 0.0 | 3.0 | 0.00 | 0.00 | 0.00 | 91 | 1025.7 |
| 20260903072121 | 61 | 130 | 2.0 | 3.0 | 0.00 | 0.00 | 0.00 | 91 | 1025.8 |
| 20260903071852 | 61 | 119 | 1.0 | 4.0 | 0.00 | 0.00 | 0.00 | 92 | 1025.8 |
| 20260903071716 | 61 | 111 | 1.0 | 4.0 | 0.00 | 0.00 | 0.00 | 92 | 1025.7 |
| 20260903071626 | 61 | 105 | 1.0 | 4.0 | 0.00 | 0.00 | 0.00 | 92 | 1025.7 |
| 20260903071546 | 61 | 108 | 2.0 | 4.0 | 0.00 | 0.00 | 0.00 | 92 | 1025.7 |
| 20260903071252 | 61 | 113 | 2.0 | 4.0 | 0.00 | 0.00 | 0.00 | 92 | 1025.7 |
| 20260903071105 | 61 | 117 | 2.0 | 4.0 | 0.00 | 0.00 | 0.00 | 92 | 1025.7 |
| 20260903070845 | 61 | 118 | 1.0 | 4.0 | 0.00 | 0.00 | 0.00 | 92 | 1025.7 |
| 20260903070704 | 60 | 138 | 2.0 | 4.0 | 0.00 | 0.00 | 0.00 | 92 | 1025.7 |
| 20260903070626 | 60 | 129 | 1.0 | 4.0 | 0.00 | 0.00 | 0.00 | 93 | 1025.7 |
| 20260903070531 | 60 | 117 | 0.0 | 2.0 | 0.00 | 0.00 | 0.00 | 93 | 1025.7 |
| 20260903070250 | 60 | 127 | 1.0 | 4.0 | 0.00 | 0.00 | 0.00 | 93 | 1025.7 |
| 20260903070154 | 60 | 127 | 0.0 | 4.0 | 0.00 | 0.00 | 0.00 | 93 | 1025.7 |
| 20260903070130 | 60 | 80 | 0.0 | 4.0 | 0.00 | 0.00 | 0.00 | 93 | 1025.7 |
| 20260903065926 | 60 | 95 | 1.0 | 4.0 | 0.00 | 0.00 | 0.00 | 93 | 1025.8 |
| 20260903065804 | 60 | 103 | 2.0 | 4.0 | 0.00 | 0.00 | 0.00 | 93 | 1025.6 |
| 20260903065739 | 60 | 103 | 3.0 | 4.0 | 0.00 | 0.00 | 0.00 | 93 | 1025.6 |
| 20260903065635 | 60 | 93 | 2.0 | 4.0 | 0.00 | 0.00 | 0.00 | 93 | 1025.6 |
| 20260903065438 | 60 | 76 | 1.0 | 2.0 | 0.00 | 0.00 | 0.00 | 94 | 1025.6 |
| 20260903065326 | 59 | 127 | 0.0 | 2.0 | 0.00 | 0.00 | 0.00 | 94 | 1025.6 |
| 20260903064455 | 59 | 119 | 1.0 | 2.0 | 0.00 | 0.00 | 0.00 | 94 | 1025.6 |
| 20260903064426 | 59 | 119 | 1.0 | 2.0 | 0.00 | 0.00 | 0.00 | 95 | 1025.5 |
| 20260903063849 | 62 | 265 | 0.0 | 0.0 | 0.00 | 0.00 | 0.00 | 86 | 1025.3 |
| 20260903063826 | 58 | 286 | 0.0 | 1.0 | 0.00 | 0.00 | 0.00 | 95 | 1025.6 |
| 20260903063728 | 58 | 286 | 0.0 | 1.0 | 0.00 | 0.00 | 0.00 | 95 | 1025.5 |
| 20260903063702 | 58 | 286 | 0.0 | 1.0 | 0.00 | 0.00 | 0.00 | 95 | 1025.7 |
| 20260903063458 | 62 | 265 | 0.0 | 0.0 | 0.00 | 0.00 | 0.00 | 85 | 1025.2 |
| 20260903063416 | 58 | 286 | 0.0 | 1.0 | 0.00 | 0.00 | 0.00 | 95 | 1025.5 |
| 20260903063242 | 58 | 286 | 0.0 | 1.0 | 0.00 | 0.00 | 0.00 | 95 | 1025.4 |
| 20260903063213 | 58 | 286 | 0.0 | 1.0 | 0.00 | 0.00 | 0.00 | 95 | 1025.5 |
| 20260903063133 | 57 | 286 | 0.0 | 0.0 | 0.00 | 0.00 | 0.00 | 95 | 1025.5 |
| 20260903062902 | 57 | 286 | 0.0 | 0.0 | 0.00 | 0.00 | 0.00 | 95 | 1025.4 |
| 20260903062808 | 57 | 286 | 0.0 | 0.0 | 0.00 | 0.00 | 0.00 | 95 | 1025.3 |
| 20260903062751 | 57 | 286 | 0.0 | 0.0 | 0.00 | 0.00 | 0.00 | 95 | 1025.4 |
| 20260903062602 | 57 | 286 | 0.0 | 0.0 | 0.00 | 0.00 | 0.00 | 95 | 1025.4 |
| 20260903062317 | 63 | 265 | 0.0 | 2.0 | 0.00 | 0.00 | 0.00 | 85 | 1025.4 |
| 20260903062252 | 63 | 265 | 1.0 | 2.0 | 0.00 | 0.00 | 0.00 | 84 | 1025.4 |
| 20260903062229 | 57 | 286 | 0.0 | 0.0 | 0.00 | 0.00 | 0.00 | 95 | 1025.4 |
| 20260903062207 | 56 | 286 | 0.0 | 0.0 | 0.00 | 0.00 | 0.00 | 95 | 1025.4 |
| 20260903062108 | 56 | 286 | 0.0 | 0.0 | 0.00 | 0.00 | 0.00 | 95 | 1025.4 |
| 20260903061938 | 56 | 286 | 0.0 | 0.0 | 0.00 | 0.00 | 0.00 | 95 | 1025.4 |
| 20260903061632 | 56 | 286 | 0.0 | 0.0 | 0.00 | 0.00 | 0.00 | 95 | 1025.5 |
| 20260903061450 | 63 | 265 | 0.0 | 1.0 | 0.00 | 0.00 | 0.00 | 84 | 1025.3 |
| 20260903061407 | 56 | 286 | 0.0 | 0.0 | 0.00 | 0.00 | 0.00 | 95 | 1025.4 |
| 20260903061328 | 56 | 286 | 0.0 | 0.0 | 0.00 | 0.00 | 0.00 | 95 | 1025.4 |
| 20260903061308 | 56 | 286 | 0.0 | 0.0 | 0.00 | 0.00 | 0.00 | 95 | 1025.4 |
| 20260903061228 | 56 | 286 | 0.0 | 0.0 | 0.00 | 0.00 | 0.00 | 95 | 1025.4 |
| 20260903061041 | 56 | 286 | 0.0 | 0.0 | 0.00 | 0.00 | 0.00 | 95 | 1025.4 |
| 20260903060941 | 56 | 286 | 0.0 | 0.0 | 0.00 | 0.00 | 0.00 | 95 | 1025.4 |
| 20260903060237 | 56 | 286 | 0.0 | 0.0 | 0.00 | 0.00 | 0.00 | 95 | 1025.5 |
| 20260903060215 | 56 | 286 | 0.0 | 0.0 | 0.00 | 0.00 | 0.00 | 95 | 1025.5 |
| 20260903060059 | 56 | 286 | 0.0 | 0.0 | 0.00 | 0.00 | 0.00 | 95 | 1025.5 |
| 20260903055806 | 56 | 286 | 0.0 | 0.0 | 0.00 | 0.00 | 0.00 | 95 | 1025.5 |
| 20260903055750 | 64 | 271 | 1.0 | 2.0 | 0.00 | 0.00 | 0.00 | 83 | 1025.4 |
| 20260903055656 | 56 | 286 | 0.0 | 0.0 | 0.00 | 0.00 | 0.00 | 96 | 1025.4 |
| 20260903055634 | 56 | 286 | 0.0 | 0.0 | 0.00 | 0.00 | 0.00 | 96 | 1025.5 |
| 20260903055412 | 56 | 286 | 0.0 | 0.0 | 0.00 | 0.00 | 0.00 | 96 | 1025.5 |
| 20260903055257 | 56 | 286 | 0.0 | 0.0 | 0.00 | 0.00 | 0.00 | 96 | 1025.5 |
| 20260903055233 | 56 | 286 | 0.0 | 0.0 | 0.00 | 0.00 | 0.00 | 96 | 1025.4 |
| 20260903055130 | 56 | 286 | 0.0 | 0.0 | 0.00 | 0.00 | 0.00 | 96 | 1025.4 |
| 20260903054958 | 56 | 286 | 0.0 | 0.0 | 0.00 | 0.00 | 0.00 | 95 | 1025.4 |
| 20260903054920 | 55 | 286 | 0.0 | 0.0 | 0.00 | 0.00 | 0.00 | 95 | 1025.4 |
| 20260903054500 | 55 | 286 | 0.0 | 0.0 | 0.00 | 0.00 | 0.00 | 95 | 1025.3 |
| 20260903054407 | 55 | 286 | 0.0 | 0.0 | 0.00 | 0.00 | 0.00 | 95 | 1025.4 |
| 20260903054032 | 55 | 286 | 0.0 | 0.0 | 0.00 | 0.00 | 0.00 | 95 | 1025.3 |
| 20260903053938 | 64 | 282 | 1.0 | 2.0 | 0.00 | 0.00 | 0.00 | 83 | 1025.4 |
| 20260903053827 | 55 | 286 | 0.0 | 0.0 | 0.00 | 0.00 | 0.00 | 95 | 1025.3 |
| 20260903053717 | 55 | 286 | 0.0 | 0.0 | 0.00 | 0.00 | 0.00 | 95 | 1025.3 |
| 20260903053520 | 55 | 286 | 0.0 | 0.0 | 0.00 | 0.00 | 0.00 | 95 | 1025.3 |
| 20260903053434 | 55 | 286 | 0.0 | 0.0 | 0.00 | 0.00 | 0.00 | 95 | 1025.2 |
| 20260903053417 | 55 | 286 | 0.0 | 0.0 | 0.00 | 0.00 | 0.00 | 95 | 1025.2 |
| 20260903053325 | 55 | 286 | 0.0 | 0.0 | 0.00 | 0.00 | 0.00 | 95 | 1025.4 |
| 20260903053148 | 55 | 286 | 0.0 | 0.0 | 0.00 | 0.00 | 0.00 | 95 | 1025.3 |
| 20260903053122 | 55 | 286 | 0.0 | 0.0 | 0.00 | 0.00 | 0.00 | 95 | 1025.3 |
| 20260903053105 | 55 | 286 | 0.0 | 0.0 | 0.00 | 0.00 | 0.00 | 95 | 1025.2 |
| 20260903052601 | 55 | 286 | 0.0 | 0.0 | 0.00 | 0.00 | 0.00 | 95 | 1025.2 |
| 20260903052242 | 55 | 286 | 0.0 | 0.0 | 0.00 | 0.00 | 0.00 | 95 | 1025.1 |
| 20260903052135 | 55 | 286 | 0.0 | 0.0 | 0.00 | 0.00 | 0.00 | 95 | 1025.2 |
| 20260903051835 | 55 | 286 | 0.0 | 0.0 | 0.00 | 0.00 | 0.00 | 95 | 1025.2 |
| 20260903051708 | 55 | 286 | 0.0 | 0.0 | 0.00 | 0.00 | 0.00 | 95 | 1025.2 |
| 20260903051629 | 55 | 286 | 0.0 | 0.0 | 0.00 | 0.00 | 0.00 | 95 | 1025.2 |
| 20260903051300 | 55 | 286 | 0.0 | 0.0 | 0.00 | 0.00 | 0.00 | 95 | 1025.1 |
| 20260903051108 | 55 | 286 | 0.0 | 0.0 | 0.00 | 0.00 | 0.00 | 94 | 1025.1 |
| 20260903051039 | 55 | 286 | 0.0 | 0.0 | 0.00 | 0.00 | 0.00 | 94 | 1025.2 |
| 20260903051026 | 55 | 286 | 0.0 | 0.0 | 0.00 | 0.00 | 0.00 | 95 | 1025.1 |
| 20260903050541 | 56 | 286 | 0.0 | 0.0 | 0.00 | 0.00 | 0.00 | 95 | 1025.1 |
| 20260903050513 | 56 | 286 | 0.0 | 0.0 | 0.00 | 0.00 | 0.00 | 95 | 1025.1 |
| 20260903045807 | 56 | 286 | 0.0 | 0.0 | 0.00 | 0.00 | 0.00 | 95 | 1025.1 |
| 20260903045636 | 56 | 286 | 0.0 | 0.0 | 0.00 | 0.00 | 0.00 | 95 | 1025.0 |
| 20260903045448 | 56 | 286 | 0.0 | 0.0 | 0.00 | 0.00 | 0.00 | 95 | 1025.0 |
| 20260903045407 | 56 | 286 | 0.0 | 0.0 | 0.00 | 0.00 | 0.00 | 95 | 1024.9 |
| 20260903045037 | 56 | 286 | 0.0 | 0.0 | 0.00 | 0.00 | 0.00 | 95 | 1025.0 |
| 20260903044838 | 56 | 286 | 0.0 | 0.0 | 0.00 | 0.00 | 0.00 | 95 | 1024.9 |
| 20260903044745 | 56 | 286 | 0.0 | 0.0 | 0.00 | 0.00 | 0.00 | 95 | 1024.9 |
| 20260903044600 | 56 | 286 | 0.0 | 0.0 | 0.00 | 0.00 | 0.00 | 95 | 1024.9 |
| 20260903044512 | 56 | 286 | 0.0 | 0.0 | 0.00 | 0.00 | 0.00 | 95 | 1024.9 |
| 20260903044443 | 56 | 286 | 0.0 | 0.0 | 0.00 | 0.00 | 0.00 | 95 | 1024.7 |
| 20260903043738 | 56 | 286 | 0.0 | 0.0 | 0.00 | 0.00 | 0.00 | 95 | 1024.6 |
| 20260903043728 | 56 | 286 | 0.0 | 0.0 | 0.00 | 0.00 | 0.00 | 95 | 1024.7 |
| 20260903043516 | 56 | 286 | 0.0 | 0.0 | 0.00 | 0.00 | 0.00 | 95 | 1024.7 |
| 20260903043418 | 56 | 286 | 0.0 | 0.0 | 0.00 | 0.00 | 0.00 | 94 | 1024.6 |
| 20260903043024 | 56 | 286 | 0.0 | 0.0 | 0.00 | 0.00 | 0.00 | 94 | 1024.6 |
| 20260903042812 | 56 | 286 | 0.0 | 0.0 | 0.00 | 0.00 | 0.00 | 94 | 1024.6 |
| 20260903042641 | 56 | 286 | 0.0 | 0.0 | 0.00 | 0.00 | 0.00 | 94 | 1024.7 |
| 20260903042626 | 56 | 286 | 0.0 | 0.0 | 0.00 | 0.00 | 0.00 | 94 | 1024.6 |
| 20260903042406 | 56 | 286 | 0.0 | 0.0 | 0.00 | 0.00 | 0.00 | 94 | 1024.7 |
| 20260903042216 | 56 | 286 | 0.0 | 0.0 | 0.00 | 0.00 | 0.00 | 94 | 1024.7 |
| 20260903042147 | 56 | 286 | 0.0 | 0.0 | 0.00 | 0.00 | 0.00 | 94 | 1024.6 |
| 20260903042101 | 56 | 286 | 0.0 | 0.0 | 0.00 | 0.00 | 0.00 | 94 | 1024.7 |
| 20260903041906 | 56 | 286 | 0.0 | 0.0 | 0.00 | 0.00 | 0.00 | 94 | 1024.7 |
| 20260903041825 | 56 | 286 | 0.0 | 0.0 | 0.00 | 0.00 | 0.00 | 94 | 1024.9 |
| 20260903041811 | 56 | 286 | 0.0 | 0.0 | 0.00 | 0.00 | 0.00 | 94 | 1024.7 |
| 20260903041352 | 64 | 282 | 0.0 | 0.0 | 0.00 | 0.00 | 0.00 | 82 | 1025.4 |
| 20260903041236 | 56 | 286 | 0.0 | 0.0 | 0.00 | 0.00 | 0.00 | 94 | 1024.7 |
| 20260903041148 | 56 | 286 | 0.0 | 0.0 | 0.00 | 0.00 | 0.00 | 94 | 1024.7 |
| 20260903041055 | 56 | 286 | 0.0 | 0.0 | 0.00 | 0.00 | 0.00 | 94 | 1024.7 |
| 20260903040909 | 56 | 286 | 0.0 | 0.0 | 0.00 | 0.00 | 0.00 | 94 | 1024.6 |
| 20260903040810 | 56 | 286 | 0.0 | 0.0 | 0.00 | 0.00 | 0.00 | 94 | 1024.7 |
| 20260903040218 | 56 | 286 | 0.0 | 0.0 | 0.00 | 0.00 | 0.00 | 94 | 1024.7 |
| 20260903040132 | 56 | 286 | 0.0 | 0.0 | 0.00 | 0.00 | 0.00 | 94 | 1024.7 |
| 20260903040035 | 56 | 286 | 0.0 | 0.0 | 0.00 | 0.00 | 0.00 | 94 | 1024.6 |
| 20260903035815 | 56 | 286 | 0.0 | 0.0 | 0.00 | 0.00 | 0.00 | 94 | 1024.7 |
| 20260903035745 | 64 | 282 | 0.0 | 2.0 | 0.00 | 0.00 | 0.00 | 82 | 1025.3 |
| 20260903035627 | 56 | 286 | 0.0 | 0.0 | 0.00 | 0.00 | 0.00 | 94 | 1024.7 |
| 20260903035529 | 56 | 286 | 0.0 | 0.0 | 0.00 | 0.00 | 0.00 | 94 | 1024.7 |
| 20260903035343 | 56 | 286 | 0.0 | 0.0 | 0.00 | 0.00 | 0.00 | 94 | 1024.9 |
| 20260903035317 | 56 | 286 | 0.0 | 0.0 | 0.00 | 0.00 | 0.00 | 94 | 1024.9 |
| 20260903034809 | 56 | 286 | 0.0 | 0.0 | 0.00 | 0.00 | 0.00 | 93 | 1024.9 |
| 20260903034640 | 56 | 286 | 0.0 | 0.0 | 0.00 | 0.00 | 0.00 | 93 | 1024.9 |
| 20260903034510 | 56 | 286 | 0.0 | 0.0 | 0.00 | 0.00 | 0.00 | 94 | 1024.9 |
| 20260903034300 | 56 | 286 | 0.0 | 0.0 | 0.00 | 0.00 | 0.00 | 94 | 1024.7 |
| 20260903033836 | 65 | 282 | 1.0 | 3.0 | 0.00 | 0.00 | 0.00 | 81 | 1025.2 |
| 20260903033804 | 57 | 286 | 0.0 | 0.0 | 0.00 | 0.00 | 0.00 | 94 | 1024.9 |
| 20260903033735 | 65 | 259 | 1.0 | 2.0 | 0.00 | 0.00 | 0.00 | 80 | 1025.1 |
| 20260903033651 | 65 | 259 | 1.0 | 4.0 | 0.00 | 0.00 | 0.00 | 80 | 1025.0 |
| 20260903033601 | 57 | 286 | 0.0 | 0.0 | 0.00 | 0.00 | 0.00 | 94 | 1024.7 |
| 20260903033455 | 57 | 286 | 0.0 | 0.0 | 0.00 | 0.00 | 0.00 | 94 | 1024.7 |
| 20260903033203 | 57 | 286 | 0.0 | 0.0 | 0.00 | 0.00 | 0.00 | 94 | 1024.9 |
| 20260903033142 | 65 | 259 | 3.0 | 4.0 | 0.00 | 0.00 | 0.00 | 79 | 1025.0 |
| 20260903033110 | 57 | 286 | 0.0 | 0.0 | 0.00 | 0.00 | 0.00 | 94 | 1024.9 |
| 20260903033020 | 57 | 286 | 0.0 | 0.0 | 0.00 | 0.00 | 0.00 | 94 | 1024.9 |
| 20260903032817 | 66 | 256 | 2.0 | 3.0 | 0.00 | 0.00 | 0.00 | 79 | 1025.0 |
| 20260903032743 | 57 | 286 | 0.0 | 0.0 | 0.00 | 0.00 | 0.00 | 94 | 1024.9 |
| 20260903032714 | 66 | 297 | 0.0 | 1.0 | 0.00 | 0.00 | 0.00 | 79 | 1024.9 |
| 20260903032547 | 57 | 286 | 0.0 | 0.0 | 0.00 | 0.00 | 0.00 | 94 | 1024.9 |
| 20260903032344 | 57 | 286 | 0.0 | 0.0 | 0.00 | 0.00 | 0.00 | 94 | 1024.9 |
| 20260903032328 | 66 | 297 | 0.0 | 1.0 | 0.00 | 0.00 | 0.00 | 78 | 1024.9 |
| 20260903032306 | 67 | 297 | 0.0 | 2.0 | 0.00 | 0.00 | 0.00 | 78 | 1024.7 |
| 20260903032228 | 67 | 297 | 1.0 | 2.0 | 0.00 | 0.00 | 0.00 | 77 | 1024.9 |
| 20260903032135 | 57 | 286 | 0.0 | 0.0 | 0.00 | 0.00 | 0.00 | 94 | 1024.9 |
| 20260903032050 | 57 | 286 | 0.0 | 0.0 | 0.00 | 0.00 | 0.00 | 94 | 1024.9 |
| 20260903032001 | 57 | 286 | 0.0 | 0.0 | 0.00 | 0.00 | 0.00 | 94 | 1024.9 |
| 20260903031820 | 67 | 321 | 0.0 | 3.0 | 0.00 | 0.00 | 0.00 | 76 | 1024.6 |
| 20260903031737 | 57 | 286 | 0.0 | 0.0 | 0.00 | 0.00 | 0.00 | 94 | 1024.7 |
| 20260903031557 | 57 | 286 | 0.0 | 0.0 | 0.00 | 0.00 | 0.00 | 94 | 1024.7 |
| 20260903031337 | 57 | 286 | 0.0 | 0.0 | 0.00 | 0.00 | 0.00 | 93 | 1024.9 |
| 20260903031155 | 57 | 286 | 0.0 | 0.0 | 0.00 | 0.00 | 0.00 | 93 | 1024.9 |
| 20260903031122 | 57 | 286 | 0.0 | 0.0 | 0.00 | 0.00 | 0.00 | 93 | 1025.0 |
| 20260903031035 | 57 | 286 | 0.0 | 0.0 | 0.00 | 0.00 | 0.00 | 93 | 1025.0 |
| 20260903030848 | 57 | 286 | 0.0 | 0.0 | 0.00 | 0.00 | 0.00 | 93 | 1025.0 |
| 20260903030541 | 57 | 286 | 0.0 | 0.0 | 0.00 | 0.00 | 0.00 | 93 | 1025.0 |
| 20260903030327 | 57 | 286 | 0.0 | 0.0 | 0.00 | 0.00 | 0.00 | 93 | 1025.1 |
| 20260903030227 | 67 | 305 | 1.0 | 3.0 | 0.00 | 0.00 | 0.00 | 75 | 1024.6 |
| 20260903030139 | 57 | 286 | 0.0 | 0.0 | 0.00 | 0.00 | 0.00 | 93 | 1025.1 |
| 20260903030122 | 57 | 286 | 0.0 | 0.0 | 0.00 | 0.00 | 0.00 | 93 | 1025.1 |
| 20260903030040 | 57 | 286 | 0.0 | 0.0 | 0.00 | 0.00 | 0.00 | 93 | 1025.1 |
| 20260903025926 | 57 | 286 | 0.0 | 0.0 | 0.00 | 0.00 | 0.00 | 93 | 1025.1 |
| 20260903025831 | 57 | 286 | 0.0 | 0.0 | 0.00 | 0.00 | 0.00 | 93 | 1025.1 |
| 20260903025338 | 57 | 286 | 0.0 | 0.0 | 0.00 | 0.00 | 0.00 | 93 | 1025.1 |
| 20260903025322 | 57 | 286 | 0.0 | 0.0 | 0.00 | 0.00 | 0.00 | 93 | 1025.1 |
| 20260903025230 | 57 | 286 | 0.0 | 0.0 | 0.00 | 0.00 | 0.00 | 93 | 1025.0 |
| 20260903025053 | 57 | 286 | 0.0 | 0.0 | 0.00 | 0.00 | 0.00 | 93 | 1025.1 |
| 20260903024944 | 57 | 286 | 0.0 | 0.0 | 0.00 | 0.00 | 0.00 | 93 | 1025.1 |
| 20260903024808 | 57 | 286 | 0.0 | 0.0 | 0.00 | 0.00 | 0.00 | 93 | 1025.1 |
| 20260903024711 | 57 | 286 | 0.0 | 0.0 | 0.00 | 0.00 | 0.00 | 93 | 1025.2 |
| 20260903024642 | 57 | 286 | 0.0 | 0.0 | 0.00 | 0.00 | 0.00 | 93 | 1025.1 |
| 20260903024144 | 57 | 286 | 0.0 | 0.0 | 0.00 | 0.00 | 0.00 | 93 | 1025.2 |
| 20260903024045 | 57 | 286 | 0.0 | 0.0 | 0.00 | 0.00 | 0.00 | 93 | 1025.1 |
| 20260903023432 | 57 | 286 | 0.0 | 0.0 | 0.00 | 0.00 | 0.00 | 93 | 1025.1 |
| 20260903023337 | 57 | 286 | 0.0 | 0.0 | 0.00 | 0.00 | 0.00 | 93 | 1025.1 |
| 20260903023229 | 57 | 286 | 0.0 | 0.0 | 0.00 | 0.00 | 0.00 | 93 | 1025.1 |
| 20260903023149 | 57 | 286 | 0.0 | 0.0 | 0.00 | 0.00 | 0.00 | 93 | 1025.0 |
| 20260903022757 | 57 | 286 | 0.0 | 0.0 | 0.00 | 0.00 | 0.00 | 93 | 1025.0 |
| 20260903022713 | 57 | 286 | 0.0 | 0.0 | 0.00 | 0.00 | 0.00 | 92 | 1025.0 |
| 20260903022657 | 57 | 286 | 0.0 | 0.0 | 0.00 | 0.00 | 0.00 | 92 | 1024.9 |
| 20260903022316 | 57 | 286 | 0.0 | 0.0 | 0.00 | 0.00 | 0.00 | 92 | 1024.9 |
| 20260903022222 | 58 | 286 | 0.0 | 0.0 | 0.00 | 0.00 | 0.00 | 92 | 1024.9 |
| 20260903022151 | 58 | 286 | 0.0 | 0.0 | 0.00 | 0.00 | 0.00 | 92 | 1025.0 |
| 20260903021818 | 58 | 286 | 0.0 | 0.0 | 0.00 | 0.00 | 0.00 | 92 | 1024.9 |
| 20260903021059 | 58 | 286 | 0.0 | 0.0 | 0.00 | 0.00 | 0.00 | 92 | 1025.1 |
| 20260903021014 | 58 | 286 | 0.0 | 0.0 | 0.00 | 0.00 | 0.00 | 92 | 1025.0 |
| 20260903020903 | 58 | 286 | 0.0 | 0.0 | 0.00 | 0.00 | 0.00 | 92 | 1025.0 |
| 20260903020816 | 58 | 286 | 0.0 | 0.0 | 0.00 | 0.00 | 0.00 | 92 | 1025.1 |
| 20260903020752 | 58 | 286 | 0.0 | 0.0 | 0.00 | 0.00 | 0.00 | 92 | 1025.0 |
| 20260903020710 | 58 | 286 | 0.0 | 0.0 | 0.00 | 0.00 | 0.00 | 91 | 1025.1 |
| 20260903020248 | 58 | 286 | 0.0 | 0.0 | 0.00 | 0.00 | 0.00 | 91 | 1025.1 |
| 20260903020154 | 58 | 286 | 0.0 | 0.0 | 0.00 | 0.00 | 0.00 | 91 | 1025.0 |
| 20260903020058 | 58 | 286 | 0.0 | 0.0 | 0.00 | 0.00 | 0.00 | 91 | 1025.0 |
| 20260903020034 | 58 | 286 | 0.0 | 0.0 | 0.00 | 0.00 | 0.00 | 91 | 1024.9 |
| 20260903015941 | 58 | 286 | 0.0 | 0.0 | 0.00 | 0.00 | 0.00 | 91 | 1025.0 |
| 20260903015554 | 59 | 286 | 0.0 | 0.0 | 0.00 | 0.00 | 0.00 | 91 | 1025.1 |
| 20260903014643 | 59 | 286 | 0.0 | 2.0 | 0.00 | 0.00 | 0.00 | 91 | 1025.1 |
| 20260903014550 | 59 | 286 | 0.0 | 2.0 | 0.00 | 0.00 | 0.00 | 90 | 1025.1 |
| 20260903014247 | 59 | 286 | 1.0 | 2.0 | 0.00 | 0.00 | 0.00 | 90 | 1025.1 |
| 20260903013813 | 59 | 286 | 1.0 | 2.0 | 0.00 | 0.00 | 0.00 | 90 | 1025.1 |
| 20260903013710 | 59 | 286 | 0.0 | 2.0 | 0.00 | 0.00 | 0.00 | 90 | 1025.0 |
| 20260903013616 | 59 | 265 | 0.0 | 0.0 | 0.00 | 0.00 | 0.00 | 90 | 1025.1 |
| 20260903013521 | 59 | 265 | 0.0 | 0.0 | 0.00 | 0.00 | 0.00 | 89 | 1025.1 |
| 20260903013432 | 59 | 265 | 0.0 | 0.0 | 0.00 | 0.00 | 0.00 | 89 | 1025.1 |
| 20260903013109 | 60 | 265 | 0.0 | 0.0 | 0.00 | 0.00 | 0.00 | 89 | 1025.1 |
| 20260903012730 | 60 | 265 | 0.0 | 0.0 | 0.00 | 0.00 | 0.00 | 89 | 1025.1 |
| 20260903012406 | 60 | 265 | 0.0 | 0.0 | 0.00 | 0.00 | 0.00 | 89 | 1025.2 |
| 20260903012314 | 60 | 265 | 0.0 | 0.0 | 0.00 | 0.00 | 0.00 | 89 | 1025.2 |
| 20260903011654 | 60 | 265 | 0.0 | 0.0 | 0.00 | 0.00 | 0.00 | 89 | 1025.2 |
| 20260903011608 | 60 | 265 | 0.0 | 0.0 | 0.00 | 0.00 | 0.00 | 89 | 1025.1 |
| 20260903011546 | 60 | 265 | 0.0 | 0.0 | 0.00 | 0.00 | 0.00 | 89 | 1025.2 |
| 20260903011506 | 60 | 265 | 0.0 | 0.0 | 0.00 | 0.00 | 0.00 | 89 | 1025.2 |
| 20260903011349 | 60 | 265 | 0.0 | 0.0 | 0.00 | 0.00 | 0.00 | 88 | 1025.2 |
| 20260903010741 | 60 | 265 | 0.0 | 0.0 | 0.00 | 0.00 | 0.00 | 89 | 1025.3 |
| 20260903010703 | 60 | 265 | 0.0 | 0.0 | 0.00 | 0.00 | 0.00 | 89 | 1025.2 |
| 20260903010634 | 60 | 265 | 0.0 | 0.0 | 0.00 | 0.00 | 0.00 | 89 | 1025.3 |
| 20260903010551 | 60 | 265 | 0.0 | 0.0 | 0.00 | 0.00 | 0.00 | 88 | 1025.2 |
| 20260903010503 | 60 | 265 | 0.0 | 0.0 | 0.00 | 0.00 | 0.00 | 88 | 1025.2 |
| 20260903010444 | 60 | 265 | 0.0 | 0.0 | 0.00 | 0.00 | 0.00 | 88 | 1025.3 |
| 20260903010356 | 60 | 265 | 0.0 | 0.0 | 0.00 | 0.00 | 0.00 | 88 | 1025.2 |
| 20260903010311 | 60 | 265 | 0.0 | 0.0 | 0.00 | 0.00 | 0.00 | 88 | 1025.2 |
| 20260903010236 | 60 | 265 | 0.0 | 0.0 | 0.00 | 0.00 | 0.00 | 88 | 1025.2 |
| 20260903010205 | 60 | 265 | 0.0 | 0.0 | 0.00 | 0.00 | 0.00 | 88 | 1025.3 |
| 20260903010122 | 61 | 265 | 0.0 | 0.0 | 0.00 | 0.00 | 0.00 | 88 | 1025.3 |
| 20260903005813 | 61 | 265 | 0.0 | 0.0 | 0.00 | 0.00 | 0.00 | 88 | 1025.3 |
| 20260903005732 | 61 | 265 | 0.0 | 0.0 | 0.00 | 0.00 | 0.00 | 88 | 1025.3 |
| 20260903005612 | 61 | 265 | 0.0 | 0.0 | 0.00 | 0.00 | 0.00 | 88 | 1025.3 |
| 20260903005530 | 61 | 265 | 0.0 | 0.0 | 0.00 | 0.00 | 0.00 | 88 | 1025.3 |
| 20260903005427 | 61 | 265 | 0.0 | 0.0 | 0.00 | 0.00 | 0.00 | 87 | 1025.3 |
| 20260903005348 | 61 | 265 | 0.0 | 0.0 | 0.00 | 0.00 | 0.00 | 87 | 1025.3 |
| 20260903005313 | 61 | 265 | 0.0 | 0.0 | 0.00 | 0.00 | 0.00 | 87 | 1025.3 |
| 20260903005227 | 61 | 265 | 0.0 | 0.0 | 0.00 | 0.00 | 0.00 | 87 | 1025.3 |
| 20260903004852 | 61 | 265 | 0.0 | 0.0 | 0.00 | 0.00 | 0.00 | 86 | 1025.3 |
| 20260903004807 | 61 | 265 | 0.0 | 0.0 | 0.00 | 0.00 | 0.00 | 86 | 1025.3 |
| 20260903004432 | 61 | 265 | 0.0 | 0.0 | 0.00 | 0.00 | 0.00 | 86 | 1025.3 |
| 20260903004100 | 61 | 265 | 0.0 | 0.0 | 0.00 | 0.00 | 0.00 | 86 | 1025.4 |
| 20260903003944 | 61 | 265 | 0.0 | 0.0 | 0.00 | 0.00 | 0.00 | 86 | 1025.3 |
| 20260903003907 | 61 | 265 | 0.0 | 0.0 | 0.00 | 0.00 | 0.00 | 86 | 1025.3 |
| 20260903003814 | 62 | 265 | 0.0 | 0.0 | 0.00 | 0.00 | 0.00 | 86 | 1025.4 |
| 20260903002843 | 62 | 265 | 0.0 | 0.0 | 0.00 | 0.00 | 0.00 | 86 | 1025.2 |
| 20260903002743 | 62 | 265 | 0.0 | 0.0 | 0.00 | 0.00 | 0.00 | 86 | 1025.3 |
| 20260903002641 | 62 | 265 | 0.0 | 0.0 | 0.00 | 0.00 | 0.00 | 86 | 1025.3 |
| 20260903002328 | 62 | 265 | 0.0 | 0.0 | 0.00 | 0.00 | 0.00 | 85 | 1025.2 |
| 20260903002232 | 62 | 265 | 0.0 | 0.0 | 0.00 | 0.00 | 0.00 | 85 | 1025.3 |
| 20260903002156 | 62 | 265 | 0.0 | 0.0 | 0.00 | 0.00 | 0.00 | 85 | 1025.2 |
| 20260903001844 | 62 | 265 | 0.0 | 0.0 | 0.00 | 0.00 | 0.00 | 85 | 1025.3 |
| 20260903001524 | 62 | 265 | 0.0 | 2.0 | 0.00 | 0.00 | 0.00 | 85 | 1025.3 |
| 20260903001504 | 62 | 265 | 0.0 | 2.0 | 0.00 | 0.00 | 0.00 | 85 | 1025.3 |
| 20260903001430 | 62 | 265 | 0.0 | 2.0 | 0.00 | 0.00 | 0.00 | 85 | 1025.4 |
| 20260903001314 | 62 | 265 | 0.0 | 2.0 | 0.00 | 0.00 | 0.00 | 85 | 1025.3 |
| 20260903001224 | 62 | 265 | 0.0 | 2.0 | 0.00 | 0.00 | 0.00 | 85 | 1025.4 |
| 20260903001110 | 62 | 265 | 1.0 | 2.0 | 0.00 | 0.00 | 0.00 | 85 | 1025.3 |
| 20260903001024 | 62 | 265 | 1.0 | 2.0 | 0.00 | 0.00 | 0.00 | 85 | 1025.4 |
| 20260903000947 | 62 | 265 | 0.0 | 2.0 | 0.00 | 0.00 | 0.00 | 85 | 1025.4 |
| 20260903000509 | 63 | 265 | 1.0 | 2.0 | 0.00 | 0.00 | 0.00 | 85 | 1025.5 |
| 20260903000355 | 63 | 265 | 1.0 | 2.0 | 0.00 | 0.00 | 0.00 | 84 | 1025.4 |
| 20260902235944 | 63 | 265 | 0.0 | 2.0 | 0.00 | 0.00 | 0.00 | 84 | 1025.4 |
| 20260902235859 | 63 | 265 | 0.0 | 2.0 | 0.00 | 0.00 | 0.00 | 84 | 1025.3 |
| 20260902235747 | 63 | 265 | 0.0 | 1.0 | 0.00 | 0.00 | 0.00 | 84 | 1025.4 |
| 20260902235643 | 63 | 265 | 0.0 | 1.0 | 0.00 | 0.00 | 0.00 | 84 | 1025.5 |
| 20260902235551 | 63 | 265 | 0.0 | 1.0 | 0.00 | 0.00 | 0.00 | 84 | 1025.4 |
| 20260902235507 | 63 | 265 | 0.0 | 1.0 | 0.00 | 0.00 | 0.00 | 84 | 1025.3 |
| 20260902235431 | 63 | 265 | 0.0 | 1.0 | 0.00 | 0.00 | 0.00 | 84 | 1025.4 |
| 20260902235051 | 63 | 265 | 0.0 | 1.0 | 0.00 | 0.00 | 0.00 | 84 | 1025.4 |
| 20260902235004 | 63 | 265 | 0.0 | 1.0 | 0.00 | 0.00 | 0.00 | 83 | 1025.5 |
| 20260902234858 | 63 | 265 | 0.0 | 2.0 | 0.00 | 0.00 | 0.00 | 83 | 1025.5 |
| 20260902234754 | 64 | 265 | 0.0 | 2.0 | 0.00 | 0.00 | 0.00 | 83 | 1025.5 |
| 20260902234731 | 64 | 265 | 0.0 | 2.0 | 0.00 | 0.00 | 0.00 | 83 | 1025.4 |
| 20260902234700 | 64 | 265 | 0.0 | 2.0 | 0.00 | 0.00 | 0.00 | 83 | 1025.5 |
| 20260902234615 | 64 | 265 | 0.0 | 2.0 | 0.00 | 0.00 | 0.00 | 83 | 1025.5 |
| 20260902234513 | 64 | 265 | 1.0 | 2.0 | 0.00 | 0.00 | 0.00 | 83 | 1025.4 |
| 20260902233842 | 64 | 271 | 1.0 | 2.0 | 0.00 | 0.00 | 0.00 | 83 | 1025.3 |
| 20260902233806 | 64 | 282 | 1.0 | 2.0 | 0.00 | 0.00 | 0.00 | 83 | 1025.3 |
| 20260902233726 | 64 | 282 | 0.0 | 2.0 | 0.00 | 0.00 | 0.00 | 83 | 1025.4 |
| 20260902233312 | 64 | 282 | 1.0 | 2.0 | 0.00 | 0.00 | 0.00 | 83 | 1025.4 |
| 20260902232900 | 64 | 282 | 0.0 | 2.0 | 0.00 | 0.00 | 0.00 | 82 | 1025.3 |
| 20260902232822 | 64 | 282 | 0.0 | 2.0 | 0.00 | 0.00 | 0.00 | 82 | 1025.3 |
| 20260902232443 | 64 | 282 | 0.0 | 0.0 | 0.00 | 0.00 | 0.00 | 82 | 1025.3 |
| 20260902232135 | 64 | 282 | 0.0 | 2.0 | 0.00 | 0.00 | 0.00 | 82 | 1025.3 |
| 20260902232050 | 64 | 282 | 0.0 | 2.0 | 0.00 | 0.00 | 0.00 | 82 | 1025.3 |
| 20260902231957 | 64 | 282 | 0.0 | 2.0 | 0.00 | 0.00 | 0.00 | 82 | 1025.3 |
| 20260902231930 | 64 | 282 | 0.0 | 2.0 | 0.00 | 0.00 | 0.00 | 82 | 1025.3 |
| 20260902231856 | 65 | 282 | 0.0 | 2.0 | 0.00 | 0.00 | 0.00 | 82 | 1025.3 |
| 20260902231743 | 65 | 282 | 1.0 | 3.0 | 0.00 | 0.00 | 0.00 | 81 | 1025.2 |
| 20260902231642 | 65 | 282 | 1.0 | 3.0 | 0.00 | 0.00 | 0.00 | 81 | 1025.2 |
| 20260902231257 | 65 | 282 | 1.0 | 3.0 | 0.00 | 0.00 | 0.00 | 81 | 1025.2 |
| 20260902231144 | 65 | 282 | 0.0 | 3.0 | 0.00 | 0.00 | 0.00 | 81 | 1025.2 |
| 20260902231057 | 65 | 279 | 1.0 | 3.0 | 0.00 | 0.00 | 0.00 | 81 | 1025.1 |
| 20260902231002 | 65 | 279 | 1.0 | 3.0 | 0.00 | 0.00 | 0.00 | 81 | 1025.1 |
| 20260902230846 | 65 | 259 | 0.0 | 2.0 | 0.00 | 0.00 | 0.00 | 81 | 1025.1 |
| 20260902230750 | 65 | 259 | 0.0 | 2.0 | 0.00 | 0.00 | 0.00 | 80 | 1025.2 |
| 20260902230642 | 65 | 259 | 0.0 | 2.0 | 0.00 | 0.00 | 0.00 | 80 | 1025.2 |
| 20260902230540 | 65 | 259 | 1.0 | 2.0 | 0.00 | 0.00 | 0.00 | 80 | 1025.2 |